<?xml version="1.0" encoding="UTF-8" standalone="no" ?>
<gpx xmlns="http://www.topografix.com/GPX/1/1" xmlns:xsi="http://www.w3.org/2001/XMLSchema-instance" xsi:schemaLocation="http://www.topografix.com/GPX/1/1 http://www.topografix.com/GPX/1/1/gpx.xsd" version="1.1" creator="VisuGPX - https://www.visugpx.com">
  <metadata>
    <name>Tour de France 2019</name>
    <desc><![CDATA[4272km en 2 mois en tandem avec notre petit chien dans le panier avant]]></desc>
  </metadata>
  <trk>
    <name><![CDATA[Tracé 20190919-092252]]></name>
    <trkseg>
      <trkpt lat="50.35378" lon="3.50409">
        <ele>57.373</ele>
        <time>2019-09-19T07:26:28.000Z</time>
      </trkpt>
      <trkpt lat="50.35341" lon="3.50608">
        <ele>53.723</ele>
        <time>2019-09-19T07:26:58.000Z</time>
      </trkpt>
      <trkpt lat="50.35282" lon="3.5083">
        <ele>38.918</ele>
        <time>2019-09-19T07:27:28.000Z</time>
      </trkpt>
      <trkpt lat="50.35363" lon="3.50972">
        <ele>37.523</ele>
        <time>2019-09-19T07:27:58.000Z</time>
      </trkpt>
      <trkpt lat="50.35326" lon="3.51219">
        <ele>31.811</ele>
        <time>2019-09-19T07:28:28.000Z</time>
      </trkpt>
      <trkpt lat="50.35319" lon="3.51505">
        <ele>27.495</ele>
        <time>2019-09-19T07:28:58.000Z</time>
      </trkpt>
      <trkpt lat="50.3542" lon="3.5162">
        <ele>28.448</ele>
        <time>2019-09-19T07:29:28.000Z</time>
      </trkpt>
      <trkpt lat="50.35422" lon="3.51822">
        <ele>29.523</ele>
        <time>2019-09-19T07:29:58.000Z</time>
      </trkpt>
      <trkpt lat="50.35358" lon="3.52053">
        <ele>30.769</ele>
        <time>2019-09-19T07:30:28.000Z</time>
      </trkpt>
      <trkpt lat="50.35271" lon="3.522">
        <ele>34.916</ele>
        <time>2019-09-19T07:30:58.000Z</time>
      </trkpt>
      <trkpt lat="50.35172" lon="3.52213">
        <ele>30.736</ele>
        <time>2019-09-19T07:31:37.000Z</time>
      </trkpt>
      <trkpt lat="50.35178" lon="3.52344">
        <ele>36.25</ele>
        <time>2019-09-19T07:32:10.000Z</time>
      </trkpt>
      <trkpt lat="50.35084" lon="3.52407">
        <ele>42.753</ele>
        <time>2019-09-19T07:32:40.000Z</time>
      </trkpt>
      <trkpt lat="50.34981" lon="3.52454">
        <ele>51.334</ele>
        <time>2019-09-19T07:33:10.000Z</time>
      </trkpt>
      <trkpt lat="50.34888" lon="3.52461">
        <ele>49.876</ele>
        <time>2019-09-19T07:33:40.000Z</time>
      </trkpt>
      <trkpt lat="50.34799" lon="3.52478">
        <ele>51.362</ele>
        <time>2019-09-19T07:34:10.000Z</time>
      </trkpt>
      <trkpt lat="50.3471" lon="3.52499">
        <ele>57.648</ele>
        <time>2019-09-19T07:34:40.000Z</time>
      </trkpt>
      <trkpt lat="50.34626" lon="3.52522">
        <ele>57.564</ele>
        <time>2019-09-19T07:35:10.000Z</time>
      </trkpt>
      <trkpt lat="50.3453" lon="3.52568">
        <ele>64.4</ele>
        <time>2019-09-19T07:35:40.000Z</time>
      </trkpt>
      <trkpt lat="50.34418" lon="3.52586">
        <ele>60.723</ele>
        <time>2019-09-19T07:36:10.000Z</time>
      </trkpt>
      <trkpt lat="50.34304" lon="3.52585">
        <ele>63.143</ele>
        <time>2019-09-19T07:36:40.000Z</time>
      </trkpt>
      <trkpt lat="50.3418" lon="3.52583">
        <ele>61.633</ele>
        <time>2019-09-19T07:37:10.000Z</time>
      </trkpt>
      <trkpt lat="50.34138" lon="3.526">
        <ele>64.268</ele>
        <time>2019-09-19T07:37:49.000Z</time>
      </trkpt>
      <trkpt lat="50.34011" lon="3.5264">
        <ele>57.4</ele>
        <time>2019-09-19T07:38:19.000Z</time>
      </trkpt>
      <trkpt lat="50.33883" lon="3.52699">
        <ele>55.755</ele>
        <time>2019-09-19T07:38:49.000Z</time>
      </trkpt>
      <trkpt lat="50.33732" lon="3.5273">
        <ele>53.548</ele>
        <time>2019-09-19T07:39:19.000Z</time>
      </trkpt>
      <trkpt lat="50.33595" lon="3.52748">
        <ele>59.166</ele>
        <time>2019-09-19T07:39:49.000Z</time>
      </trkpt>
      <trkpt lat="50.33455" lon="3.52775">
        <ele>62.691</ele>
        <time>2019-09-19T07:40:19.000Z</time>
      </trkpt>
      <trkpt lat="50.33301" lon="3.52815">
        <ele>60.638</ele>
        <time>2019-09-19T07:40:49.000Z</time>
      </trkpt>
      <trkpt lat="50.33289" lon="3.52902">
        <ele>48.166</ele>
        <time>2019-09-19T07:43:25.000Z</time>
      </trkpt>
      <trkpt lat="50.33286" lon="3.5282">
        <ele>50.191</ele>
        <time>2019-09-19T07:44:10.000Z</time>
      </trkpt>
      <trkpt lat="50.3314" lon="3.52877">
        <ele>53.641</ele>
        <time>2019-09-19T07:44:40.000Z</time>
      </trkpt>
      <trkpt lat="50.3304" lon="3.52818">
        <ele>57.516</ele>
        <time>2019-09-19T07:45:10.000Z</time>
      </trkpt>
      <trkpt lat="50.32918" lon="3.52747">
        <ele>54.998</ele>
        <time>2019-09-19T07:45:40.000Z</time>
      </trkpt>
      <trkpt lat="50.328" lon="3.52693">
        <ele>49.973</ele>
        <time>2019-09-19T07:46:10.000Z</time>
      </trkpt>
      <trkpt lat="50.32662" lon="3.52656">
        <ele>52.934</ele>
        <time>2019-09-19T07:46:40.000Z</time>
      </trkpt>
      <trkpt lat="50.32503" lon="3.52704">
        <ele>45.865</ele>
        <time>2019-09-19T07:47:10.000Z</time>
      </trkpt>
      <trkpt lat="50.32351" lon="3.52732">
        <ele>41.17</ele>
        <time>2019-09-19T07:47:40.000Z</time>
      </trkpt>
      <trkpt lat="50.32212" lon="3.5273">
        <ele>41.136</ele>
        <time>2019-09-19T07:48:10.000Z</time>
      </trkpt>
      <trkpt lat="50.32073" lon="3.52763">
        <ele>39.946</ele>
        <time>2019-09-19T07:48:40.000Z</time>
      </trkpt>
      <trkpt lat="50.31943" lon="3.52816">
        <ele>39.535</ele>
        <time>2019-09-19T07:49:10.000Z</time>
      </trkpt>
      <trkpt lat="50.31821" lon="3.52868">
        <ele>40.765</ele>
        <time>2019-09-19T07:49:40.000Z</time>
      </trkpt>
      <trkpt lat="50.31706" lon="3.52976">
        <ele>42.452</ele>
        <time>2019-09-19T07:50:10.000Z</time>
      </trkpt>
      <trkpt lat="50.316" lon="3.5309">
        <ele>40.97</ele>
        <time>2019-09-19T07:50:40.000Z</time>
      </trkpt>
      <trkpt lat="50.31501" lon="3.53241">
        <ele>41.027</ele>
        <time>2019-09-19T07:51:10.000Z</time>
      </trkpt>
      <trkpt lat="50.31395" lon="3.53349">
        <ele>44.128</ele>
        <time>2019-09-19T07:51:40.000Z</time>
      </trkpt>
      <trkpt lat="50.31319" lon="3.53426">
        <ele>46.073</ele>
        <time>2019-09-19T07:52:10.000Z</time>
      </trkpt>
      <trkpt lat="50.31224" lon="3.53505">
        <ele>47.882</ele>
        <time>2019-09-19T07:52:40.000Z</time>
      </trkpt>
      <trkpt lat="50.31152" lon="3.53581">
        <ele>52.024</ele>
        <time>2019-09-19T07:53:10.000Z</time>
      </trkpt>
      <trkpt lat="50.31072" lon="3.53642">
        <ele>54.959</ele>
        <time>2019-09-19T07:53:40.000Z</time>
      </trkpt>
      <trkpt lat="50.30991" lon="3.53679">
        <ele>57.453</ele>
        <time>2019-09-19T07:54:10.000Z</time>
      </trkpt>
      <trkpt lat="50.30903" lon="3.53742">
        <ele>60.842</ele>
        <time>2019-09-19T07:54:40.000Z</time>
      </trkpt>
      <trkpt lat="50.30822" lon="3.53803">
        <ele>61.958</ele>
        <time>2019-09-19T07:55:10.000Z</time>
      </trkpt>
      <trkpt lat="50.30743" lon="3.53828">
        <ele>63.992</ele>
        <time>2019-09-19T07:55:40.001Z</time>
      </trkpt>
      <trkpt lat="50.3066" lon="3.5386">
        <ele>67.81</ele>
        <time>2019-09-19T07:56:10.001Z</time>
      </trkpt>
      <trkpt lat="50.3048" lon="3.53899">
        <ele>62.875</ele>
        <time>2019-09-19T07:56:40.001Z</time>
      </trkpt>
      <trkpt lat="50.30316" lon="3.53888">
        <ele>58.502</ele>
        <time>2019-09-19T07:57:10.001Z</time>
      </trkpt>
      <trkpt lat="50.30154" lon="3.53841">
        <ele>54.326</ele>
        <time>2019-09-19T07:57:40.001Z</time>
      </trkpt>
      <trkpt lat="50.30003" lon="3.53865">
        <ele>56.353</ele>
        <time>2019-09-19T07:58:10.001Z</time>
      </trkpt>
      <trkpt lat="50.29869" lon="3.53871">
        <ele>61.275</ele>
        <time>2019-09-19T07:58:40.001Z</time>
      </trkpt>
      <trkpt lat="50.29734" lon="3.54037">
        <ele>65.794</ele>
        <time>2019-09-19T07:59:10.001Z</time>
      </trkpt>
      <trkpt lat="50.29676" lon="3.54233">
        <ele>61.06</ele>
        <time>2019-09-19T07:59:40.001Z</time>
      </trkpt>
      <trkpt lat="50.29733" lon="3.54449">
        <ele>53.495</ele>
        <time>2019-09-19T08:00:10.001Z</time>
      </trkpt>
      <trkpt lat="50.29741" lon="3.54515">
        <ele>54.722</ele>
        <time>2019-09-19T08:02:28.001Z</time>
      </trkpt>
      <trkpt lat="50.2972" lon="3.54327">
        <ele>54.258</ele>
        <time>2019-09-19T08:02:58.001Z</time>
      </trkpt>
      <trkpt lat="50.29664" lon="3.54193">
        <ele>54.277</ele>
        <time>2019-09-19T08:03:28.001Z</time>
      </trkpt>
      <trkpt lat="50.29584" lon="3.54131">
        <ele>63.249</ele>
        <time>2019-09-19T08:03:58.001Z</time>
      </trkpt>
      <trkpt lat="50.29486" lon="3.54064">
        <ele>69.944</ele>
        <time>2019-09-19T08:04:28.001Z</time>
      </trkpt>
      <trkpt lat="50.29387" lon="3.54088">
        <ele>70.696</ele>
        <time>2019-09-19T08:04:58.001Z</time>
      </trkpt>
      <trkpt lat="50.29308" lon="3.54072">
        <ele>73.354</ele>
        <time>2019-09-19T08:05:28.001Z</time>
      </trkpt>
      <trkpt lat="50.29269" lon="3.53978">
        <ele>80.655</ele>
        <time>2019-09-19T08:05:58.001Z</time>
      </trkpt>
      <trkpt lat="50.2918" lon="3.5392">
        <ele>79.26</ele>
        <time>2019-09-19T08:06:28.001Z</time>
      </trkpt>
      <trkpt lat="50.29095" lon="3.53992">
        <ele>79.382</ele>
        <time>2019-09-19T08:06:58.001Z</time>
      </trkpt>
      <trkpt lat="50.29023" lon="3.54114">
        <ele>77.33</ele>
        <time>2019-09-19T08:07:28.001Z</time>
      </trkpt>
      <trkpt lat="50.28928" lon="3.5422">
        <ele>77.93</ele>
        <time>2019-09-19T08:07:58.001Z</time>
      </trkpt>
      <trkpt lat="50.28852" lon="3.54323">
        <ele>83.234</ele>
        <time>2019-09-19T08:08:28.001Z</time>
      </trkpt>
      <trkpt lat="50.28793" lon="3.54421">
        <ele>89.969</ele>
        <time>2019-09-19T08:08:58.001Z</time>
      </trkpt>
      <trkpt lat="50.28718" lon="3.54541">
        <ele>87.994</ele>
        <time>2019-09-19T08:09:28.001Z</time>
      </trkpt>
      <trkpt lat="50.28591" lon="3.54723">
        <ele>77.31</ele>
        <time>2019-09-19T08:09:58.001Z</time>
      </trkpt>
      <trkpt lat="50.28534" lon="3.54919">
        <ele>81.893</ele>
        <time>2019-09-19T08:10:28.001Z</time>
      </trkpt>
      <trkpt lat="50.28391" lon="3.55144">
        <ele>75.556</ele>
        <time>2019-09-19T08:10:58.001Z</time>
      </trkpt>
      <trkpt lat="50.28285" lon="3.55305">
        <ele>79.103</ele>
        <time>2019-09-19T08:11:28.001Z</time>
      </trkpt>
      <trkpt lat="50.28227" lon="3.5546">
        <ele>83.725</ele>
        <time>2019-09-19T08:11:58.001Z</time>
      </trkpt>
      <trkpt lat="50.2818" lon="3.55607">
        <ele>88.063</ele>
        <time>2019-09-19T08:12:28.001Z</time>
      </trkpt>
      <trkpt lat="50.28255" lon="3.55858">
        <ele>86.858</ele>
        <time>2019-09-19T08:12:58.001Z</time>
      </trkpt>
      <trkpt lat="50.28196" lon="3.56104">
        <ele>82.876</ele>
        <time>2019-09-19T08:13:28.001Z</time>
      </trkpt>
      <trkpt lat="50.28286" lon="3.56375">
        <ele>75.645</ele>
        <time>2019-09-19T08:14:01.001Z</time>
      </trkpt>
      <trkpt lat="50.2817" lon="3.56379">
        <ele>75.419</ele>
        <time>2019-09-19T08:14:31.001Z</time>
      </trkpt>
      <trkpt lat="50.28058" lon="3.5634">
        <ele>80.81</ele>
        <time>2019-09-19T08:15:01.001Z</time>
      </trkpt>
      <trkpt lat="50.27945" lon="3.56294">
        <ele>84.223</ele>
        <time>2019-09-19T08:15:31.001Z</time>
      </trkpt>
      <trkpt lat="50.27865" lon="3.56354">
        <ele>87.462</ele>
        <time>2019-09-19T08:16:01.001Z</time>
      </trkpt>
      <trkpt lat="50.27754" lon="3.56418">
        <ele>90.888</ele>
        <time>2019-09-19T08:16:31.001Z</time>
      </trkpt>
      <trkpt lat="50.27662" lon="3.56471">
        <ele>88.043</ele>
        <time>2019-09-19T08:17:01.001Z</time>
      </trkpt>
      <trkpt lat="50.27588" lon="3.56545">
        <ele>85.839</ele>
        <time>2019-09-19T08:17:31.001Z</time>
      </trkpt>
      <trkpt lat="50.27498" lon="3.56652">
        <ele>85.964</ele>
        <time>2019-09-19T08:18:01.001Z</time>
      </trkpt>
      <trkpt lat="50.27403" lon="3.56767">
        <ele>87.098</ele>
        <time>2019-09-19T08:18:31.001Z</time>
      </trkpt>
      <trkpt lat="50.27311" lon="3.56886">
        <ele>88.552</ele>
        <time>2019-09-19T08:19:01.001Z</time>
      </trkpt>
      <trkpt lat="50.27217" lon="3.57003">
        <ele>89.845</ele>
        <time>2019-09-19T08:19:31.001Z</time>
      </trkpt>
      <trkpt lat="50.27121" lon="3.57113">
        <ele>91.091</ele>
        <time>2019-09-19T08:20:01.001Z</time>
      </trkpt>
      <trkpt lat="50.2704" lon="3.57233">
        <ele>93.145</ele>
        <time>2019-09-19T08:20:31.001Z</time>
      </trkpt>
      <trkpt lat="50.26969" lon="3.57354">
        <ele>95.722</ele>
        <time>2019-09-19T08:21:01.001Z</time>
      </trkpt>
      <trkpt lat="50.26905" lon="3.57426">
        <ele>100.39</ele>
        <time>2019-09-19T08:21:31.001Z</time>
      </trkpt>
      <trkpt lat="50.26849" lon="3.57503">
        <ele>103.561</ele>
        <time>2019-09-19T08:22:01.001Z</time>
      </trkpt>
      <trkpt lat="50.26789" lon="3.57583">
        <ele>104.808</ele>
        <time>2019-09-19T08:22:31.001Z</time>
      </trkpt>
      <trkpt lat="50.26689" lon="3.57706">
        <ele>104.477</ele>
        <time>2019-09-19T08:23:01.001Z</time>
      </trkpt>
      <trkpt lat="50.26563" lon="3.57849">
        <ele>105.662</ele>
        <time>2019-09-19T08:23:31.001Z</time>
      </trkpt>
      <trkpt lat="50.26444" lon="3.57947">
        <ele>106.835</ele>
        <time>2019-09-19T08:24:01.001Z</time>
      </trkpt>
      <trkpt lat="50.26331" lon="3.5804">
        <ele>107.072</ele>
        <time>2019-09-19T08:24:31.001Z</time>
      </trkpt>
      <trkpt lat="50.26217" lon="3.5819">
        <ele>106.994</ele>
        <time>2019-09-19T08:25:01.001Z</time>
      </trkpt>
      <trkpt lat="50.26106" lon="3.58309">
        <ele>107.762</ele>
        <time>2019-09-19T08:25:31.001Z</time>
      </trkpt>
      <trkpt lat="50.25958" lon="3.584">
        <ele>107.521</ele>
        <time>2019-09-19T08:26:01.001Z</time>
      </trkpt>
      <trkpt lat="50.25851" lon="3.58448">
        <ele>108.999</ele>
        <time>2019-09-19T08:26:31.001Z</time>
      </trkpt>
      <trkpt lat="50.25873" lon="3.58682">
        <ele>106.262</ele>
        <time>2019-09-19T08:27:01.001Z</time>
      </trkpt>
      <trkpt lat="50.25846" lon="3.58894">
        <ele>106.424</ele>
        <time>2019-09-19T08:27:31.001Z</time>
      </trkpt>
      <trkpt lat="50.25805" lon="3.59071">
        <ele>103.7</ele>
        <time>2019-09-19T08:28:01.001Z</time>
      </trkpt>
      <trkpt lat="50.25775" lon="3.59265">
        <ele>104.385</ele>
        <time>2019-09-19T08:28:31.001Z</time>
      </trkpt>
      <trkpt lat="50.25738" lon="3.59449">
        <ele>109.326</ele>
        <time>2019-09-19T08:29:01.001Z</time>
      </trkpt>
      <trkpt lat="50.25714" lon="3.59618">
        <ele>112.059</ele>
        <time>2019-09-19T08:29:31.001Z</time>
      </trkpt>
      <trkpt lat="50.25669" lon="3.59792">
        <ele>113.541</ele>
        <time>2019-09-19T08:30:01.001Z</time>
      </trkpt>
      <trkpt lat="50.25624" lon="3.59953">
        <ele>114.597</ele>
        <time>2019-09-19T08:30:31.001Z</time>
      </trkpt>
      <trkpt lat="50.25569" lon="3.60089">
        <ele>117.271</ele>
        <time>2019-09-19T08:31:01.001Z</time>
      </trkpt>
      <trkpt lat="50.25495" lon="3.60225">
        <ele>112.567</ele>
        <time>2019-09-19T08:31:31.001Z</time>
      </trkpt>
      <trkpt lat="50.25444" lon="3.60397">
        <ele>112.042</ele>
        <time>2019-09-19T08:32:01.001Z</time>
      </trkpt>
      <trkpt lat="50.25388" lon="3.60556">
        <ele>112.618</ele>
        <time>2019-09-19T08:32:31.001Z</time>
      </trkpt>
      <trkpt lat="50.25327" lon="3.60707">
        <ele>115.114</ele>
        <time>2019-09-19T08:33:01.001Z</time>
      </trkpt>
      <trkpt lat="50.25283" lon="3.60866">
        <ele>115.253</ele>
        <time>2019-09-19T08:33:31.001Z</time>
      </trkpt>
      <trkpt lat="50.25256" lon="3.61042">
        <ele>116.156</ele>
        <time>2019-09-19T08:34:01.001Z</time>
      </trkpt>
      <trkpt lat="50.25227" lon="3.61239">
        <ele>113.645</ele>
        <time>2019-09-19T08:34:31.001Z</time>
      </trkpt>
      <trkpt lat="50.25202" lon="3.61442">
        <ele>111.734</ele>
        <time>2019-09-19T08:35:01.001Z</time>
      </trkpt>
      <trkpt lat="50.25179" lon="3.61663">
        <ele>114.16</ele>
        <time>2019-09-19T08:35:31.001Z</time>
      </trkpt>
      <trkpt lat="50.25167" lon="3.61875">
        <ele>112.662</ele>
        <time>2019-09-19T08:36:01.001Z</time>
      </trkpt>
      <trkpt lat="50.25142" lon="3.62082">
        <ele>112.78</ele>
        <time>2019-09-19T08:36:31.001Z</time>
      </trkpt>
      <trkpt lat="50.25101" lon="3.62257">
        <ele>112.293</ele>
        <time>2019-09-19T08:37:01.001Z</time>
      </trkpt>
      <trkpt lat="50.25062" lon="3.62417">
        <ele>119.971</ele>
        <time>2019-09-19T08:37:31.001Z</time>
      </trkpt>
      <trkpt lat="50.24983" lon="3.62482">
        <ele>118.843</ele>
        <time>2019-09-19T08:38:01.001Z</time>
      </trkpt>
      <trkpt lat="50.24994" lon="3.62614">
        <ele>120.239</ele>
        <time>2019-09-19T08:38:31.001Z</time>
      </trkpt>
      <trkpt lat="50.24975" lon="3.62813">
        <ele>121.828</ele>
        <time>2019-09-19T08:39:01.001Z</time>
      </trkpt>
      <trkpt lat="50.24906" lon="3.63023">
        <ele>120.573</ele>
        <time>2019-09-19T08:39:31.001Z</time>
      </trkpt>
      <trkpt lat="50.24856" lon="3.63188">
        <ele>121.377</ele>
        <time>2019-09-19T08:40:01.001Z</time>
      </trkpt>
      <trkpt lat="50.24802" lon="3.63329">
        <ele>128.415</ele>
        <time>2019-09-19T08:40:31.001Z</time>
      </trkpt>
      <trkpt lat="50.24753" lon="3.63462">
        <ele>135.397</ele>
        <time>2019-09-19T08:41:01.001Z</time>
      </trkpt>
      <trkpt lat="50.24698" lon="3.63616">
        <ele>138.05</ele>
        <time>2019-09-19T08:41:31.001Z</time>
      </trkpt>
      <trkpt lat="50.24676" lon="3.63713">
        <ele>148.199</ele>
        <time>2019-09-19T08:42:07.001Z</time>
      </trkpt>
      <trkpt lat="50.24697" lon="3.63738">
        <ele>146.116</ele>
        <time>2019-09-19T08:47:28.001Z</time>
      </trkpt>
      <trkpt lat="50.24726" lon="3.63787">
        <ele>140.682</ele>
        <time>2019-09-19T09:13:07.001Z</time>
      </trkpt>
      <trkpt lat="50.24771" lon="3.63899">
        <ele>138.922</ele>
        <time>2019-09-19T09:13:37.001Z</time>
      </trkpt>
      <trkpt lat="50.2475" lon="3.64044">
        <ele>132.321</ele>
        <time>2019-09-19T09:14:07.001Z</time>
      </trkpt>
      <trkpt lat="50.24784" lon="3.64146">
        <ele>139.157</ele>
        <time>2019-09-19T09:14:37.001Z</time>
      </trkpt>
      <trkpt lat="50.24846" lon="3.64107">
        <ele>138.767</ele>
        <time>2019-09-19T09:16:49.001Z</time>
      </trkpt>
      <trkpt lat="50.24914" lon="3.6428">
        <ele>135.958</ele>
        <time>2019-09-19T09:17:19.001Z</time>
      </trkpt>
      <trkpt lat="50.24983" lon="3.64468">
        <ele>132.732</ele>
        <time>2019-09-19T09:17:49.001Z</time>
      </trkpt>
      <trkpt lat="50.24947" lon="3.64654">
        <ele>122.033</ele>
        <time>2019-09-19T09:18:19.001Z</time>
      </trkpt>
      <trkpt lat="50.24851" lon="3.64833">
        <ele>123.365</ele>
        <time>2019-09-19T09:18:49.001Z</time>
      </trkpt>
      <trkpt lat="50.24754" lon="3.64987">
        <ele>130.007</ele>
        <time>2019-09-19T09:19:19.001Z</time>
      </trkpt>
      <trkpt lat="50.24656" lon="3.65111">
        <ele>133.617</ele>
        <time>2019-09-19T09:19:49.001Z</time>
      </trkpt>
      <trkpt lat="50.24564" lon="3.65216">
        <ele>137.353</ele>
        <time>2019-09-19T09:20:19.001Z</time>
      </trkpt>
      <trkpt lat="50.24502" lon="3.65353">
        <ele>132.56</ele>
        <time>2019-09-19T09:20:49.001Z</time>
      </trkpt>
      <trkpt lat="50.24493" lon="3.65344">
        <ele>128.711</ele>
        <time>2019-09-19T09:22:40.001Z</time>
      </trkpt>
      <trkpt lat="50.24378" lon="3.65198">
        <ele>127.736</ele>
        <time>2019-09-19T09:23:10.001Z</time>
      </trkpt>
      <trkpt lat="50.243" lon="3.64987">
        <ele>129.195</ele>
        <time>2019-09-19T09:23:40.001Z</time>
      </trkpt>
      <trkpt lat="50.24222" lon="3.64815">
        <ele>127.759</ele>
        <time>2019-09-19T09:24:10.001Z</time>
      </trkpt>
      <trkpt lat="50.24155" lon="3.6499">
        <ele>127.069</ele>
        <time>2019-09-19T09:24:40.001Z</time>
      </trkpt>
      <trkpt lat="50.24067" lon="3.6514">
        <ele>129.039</ele>
        <time>2019-09-19T09:25:10.001Z</time>
      </trkpt>
      <trkpt lat="50.23986" lon="3.6528">
        <ele>133.464</ele>
        <time>2019-09-19T09:25:40.001Z</time>
      </trkpt>
      <trkpt lat="50.23899" lon="3.65418">
        <ele>130.886</ele>
        <time>2019-09-19T09:26:10.001Z</time>
      </trkpt>
      <trkpt lat="50.23803" lon="3.65591">
        <ele>129.582</ele>
        <time>2019-09-19T09:26:40.001Z</time>
      </trkpt>
      <trkpt lat="50.23698" lon="3.65765">
        <ele>128.259</ele>
        <time>2019-09-19T09:27:10.001Z</time>
      </trkpt>
      <trkpt lat="50.23603" lon="3.65927">
        <ele>130.045</ele>
        <time>2019-09-19T09:27:40.001Z</time>
      </trkpt>
      <trkpt lat="50.23515" lon="3.66078">
        <ele>132.06</ele>
        <time>2019-09-19T09:28:10.001Z</time>
      </trkpt>
      <trkpt lat="50.23431" lon="3.6622">
        <ele>133.86</ele>
        <time>2019-09-19T09:28:40.001Z</time>
      </trkpt>
      <trkpt lat="50.23356" lon="3.66352">
        <ele>137.11</ele>
        <time>2019-09-19T09:29:10.001Z</time>
      </trkpt>
      <trkpt lat="50.23278" lon="3.66489">
        <ele>139.277</ele>
        <time>2019-09-19T09:29:40.001Z</time>
      </trkpt>
      <trkpt lat="50.232" lon="3.66628">
        <ele>142.271</ele>
        <time>2019-09-19T09:30:10.001Z</time>
      </trkpt>
      <trkpt lat="50.23147" lon="3.66789">
        <ele>140.753</ele>
        <time>2019-09-19T09:30:40.001Z</time>
      </trkpt>
      <trkpt lat="50.23106" lon="3.66973">
        <ele>145.053</ele>
        <time>2019-09-19T09:31:10.001Z</time>
      </trkpt>
      <trkpt lat="50.23087" lon="3.67176">
        <ele>140.659</ele>
        <time>2019-09-19T09:31:40.001Z</time>
      </trkpt>
      <trkpt lat="50.23021" lon="3.6735">
        <ele>143.685</ele>
        <time>2019-09-19T09:32:10.001Z</time>
      </trkpt>
      <trkpt lat="50.2292" lon="3.67483">
        <ele>143.603</ele>
        <time>2019-09-19T09:32:40.001Z</time>
      </trkpt>
      <trkpt lat="50.22829" lon="3.67605">
        <ele>147.881</ele>
        <time>2019-09-19T09:33:10.001Z</time>
      </trkpt>
      <trkpt lat="50.22722" lon="3.67736">
        <ele>145.067</ele>
        <time>2019-09-19T09:33:40.001Z</time>
      </trkpt>
      <trkpt lat="50.22589" lon="3.67905">
        <ele>142.651</ele>
        <time>2019-09-19T09:34:10.001Z</time>
      </trkpt>
      <trkpt lat="50.22451" lon="3.68064">
        <ele>144.038</ele>
        <time>2019-09-19T09:34:40.001Z</time>
      </trkpt>
      <trkpt lat="50.22343" lon="3.68148">
        <ele>142.329</ele>
        <time>2019-09-19T09:35:10.001Z</time>
      </trkpt>
      <trkpt lat="50.22233" lon="3.68233">
        <ele>144.96</ele>
        <time>2019-09-19T09:35:40.001Z</time>
      </trkpt>
      <trkpt lat="50.22125" lon="3.68345">
        <ele>144.456</ele>
        <time>2019-09-19T09:36:10.001Z</time>
      </trkpt>
      <trkpt lat="50.22028" lon="3.68464">
        <ele>146.021</ele>
        <time>2019-09-19T09:36:40.001Z</time>
      </trkpt>
      <trkpt lat="50.21934" lon="3.68572">
        <ele>156.684</ele>
        <time>2019-09-19T09:37:10.001Z</time>
      </trkpt>
      <trkpt lat="50.21841" lon="3.68682">
        <ele>156.193</ele>
        <time>2019-09-19T09:37:40.001Z</time>
      </trkpt>
      <trkpt lat="50.21758" lon="3.68772">
        <ele>164.803</ele>
        <time>2019-09-19T09:38:10.001Z</time>
      </trkpt>
      <trkpt lat="50.21674" lon="3.68858">
        <ele>167.486</ele>
        <time>2019-09-19T09:38:40.001Z</time>
      </trkpt>
      <trkpt lat="50.21587" lon="3.68943">
        <ele>160.103</ele>
        <time>2019-09-19T09:39:10.001Z</time>
      </trkpt>
      <trkpt lat="50.21518" lon="3.6904">
        <ele>160.569</ele>
        <time>2019-09-19T09:39:40.001Z</time>
      </trkpt>
      <trkpt lat="50.21451" lon="3.69223">
        <ele>166.964</ele>
        <time>2019-09-19T09:40:10.001Z</time>
      </trkpt>
      <trkpt lat="50.21405" lon="3.6947">
        <ele>166.295</ele>
        <time>2019-09-19T09:40:40.001Z</time>
      </trkpt>
      <trkpt lat="50.21373" lon="3.6967">
        <ele>169.94</ele>
        <time>2019-09-19T09:41:10.001Z</time>
      </trkpt>
      <trkpt lat="50.21267" lon="3.69857">
        <ele>161.735</ele>
        <time>2019-09-19T09:41:40.001Z</time>
      </trkpt>
      <trkpt lat="50.21147" lon="3.69921">
        <ele>154.253</ele>
        <time>2019-09-19T09:42:10.001Z</time>
      </trkpt>
      <trkpt lat="50.21044" lon="3.69956">
        <ele>158.98</ele>
        <time>2019-09-19T09:42:40.001Z</time>
      </trkpt>
      <trkpt lat="50.20917" lon="3.69984">
        <ele>160.067</ele>
        <time>2019-09-19T09:43:10.001Z</time>
      </trkpt>
      <trkpt lat="50.20683" lon="3.70028">
        <ele>154.252</ele>
        <time>2019-09-19T09:43:40.001Z</time>
      </trkpt>
      <trkpt lat="50.20537" lon="3.70143">
        <ele>150.969</ele>
        <time>2019-09-19T09:44:10.001Z</time>
      </trkpt>
      <trkpt lat="50.2045" lon="3.70273">
        <ele>154.554</ele>
        <time>2019-09-19T09:44:40.001Z</time>
      </trkpt>
      <trkpt lat="50.20355" lon="3.70393">
        <ele>155.155</ele>
        <time>2019-09-19T09:45:10.001Z</time>
      </trkpt>
      <trkpt lat="50.20244" lon="3.70558">
        <ele>156.682</ele>
        <time>2019-09-19T09:45:40.001Z</time>
      </trkpt>
      <trkpt lat="50.20178" lon="3.70693">
        <ele>156.861</ele>
        <time>2019-09-19T09:46:10.001Z</time>
      </trkpt>
      <trkpt lat="50.20125" lon="3.70808">
        <ele>157.381</ele>
        <time>2019-09-19T09:46:40.001Z</time>
      </trkpt>
      <trkpt lat="50.20083" lon="3.70978">
        <ele>157.227</ele>
        <time>2019-09-19T09:47:10.001Z</time>
      </trkpt>
      <trkpt lat="50.20016" lon="3.71245">
        <ele>152.657</ele>
        <time>2019-09-19T09:47:40.001Z</time>
      </trkpt>
      <trkpt lat="50.19956" lon="3.71416">
        <ele>154.305</ele>
        <time>2019-09-19T09:48:10.001Z</time>
      </trkpt>
      <trkpt lat="50.19869" lon="3.71624">
        <ele>153.494</ele>
        <time>2019-09-19T09:48:40.001Z</time>
      </trkpt>
      <trkpt lat="50.1984" lon="3.71768">
        <ele>160.975</ele>
        <time>2019-09-19T09:49:10.001Z</time>
      </trkpt>
      <trkpt lat="50.19722" lon="3.7179">
        <ele>161.218</ele>
        <time>2019-09-19T09:49:40.001Z</time>
      </trkpt>
      <trkpt lat="50.19611" lon="3.71775">
        <ele>160.664</ele>
        <time>2019-09-19T09:50:10.001Z</time>
      </trkpt>
      <trkpt lat="50.19495" lon="3.71759">
        <ele>159.959</ele>
        <time>2019-09-19T09:50:40.001Z</time>
      </trkpt>
      <trkpt lat="50.19376" lon="3.71801">
        <ele>165.742</ele>
        <time>2019-09-19T09:51:10.001Z</time>
      </trkpt>
      <trkpt lat="50.19249" lon="3.71856">
        <ele>176.576</ele>
        <time>2019-09-19T09:51:40.001Z</time>
      </trkpt>
      <trkpt lat="50.19113" lon="3.71911">
        <ele>177.868</ele>
        <time>2019-09-19T09:52:10.001Z</time>
      </trkpt>
      <trkpt lat="50.19018" lon="3.7195">
        <ele>180.515</ele>
        <time>2019-09-19T09:52:40.001Z</time>
      </trkpt>
      <trkpt lat="50.18942" lon="3.71971">
        <ele>176.757</ele>
        <time>2019-09-19T09:53:13.001Z</time>
      </trkpt>
      <trkpt lat="50.1889" lon="3.72032">
        <ele>170.51</ele>
        <time>2019-09-19T09:59:37.001Z</time>
      </trkpt>
      <trkpt lat="50.18737" lon="3.72208">
        <ele>158.581</ele>
        <time>2019-09-19T10:00:07.001Z</time>
      </trkpt>
      <trkpt lat="50.18649" lon="3.72289">
        <ele>164.115</ele>
        <time>2019-09-19T10:00:37.001Z</time>
      </trkpt>
      <trkpt lat="50.18564" lon="3.72374">
        <ele>165.207</ele>
        <time>2019-09-19T10:01:07.001Z</time>
      </trkpt>
      <trkpt lat="50.18381" lon="3.72562">
        <ele>157.468</ele>
        <time>2019-09-19T10:01:37.001Z</time>
      </trkpt>
      <trkpt lat="50.18294" lon="3.72655">
        <ele>161.734</ele>
        <time>2019-09-19T10:02:07.001Z</time>
      </trkpt>
      <trkpt lat="50.18232" lon="3.72719">
        <ele>163.837</ele>
        <time>2019-09-19T10:02:37.001Z</time>
      </trkpt>
      <trkpt lat="50.18154" lon="3.72795">
        <ele>172.555</ele>
        <time>2019-09-19T10:03:07.001Z</time>
      </trkpt>
      <trkpt lat="50.18035" lon="3.72919">
        <ele>171.017</ele>
        <time>2019-09-19T10:03:37.001Z</time>
      </trkpt>
      <trkpt lat="50.1786" lon="3.73094">
        <ele>161.424</ele>
        <time>2019-09-19T10:04:07.001Z</time>
      </trkpt>
      <trkpt lat="50.17723" lon="3.73241">
        <ele>162.436</ele>
        <time>2019-09-19T10:04:37.001Z</time>
      </trkpt>
      <trkpt lat="50.1761" lon="3.73355">
        <ele>166.662</ele>
        <time>2019-09-19T10:05:07.001Z</time>
      </trkpt>
      <trkpt lat="50.1749" lon="3.73481">
        <ele>167.624</ele>
        <time>2019-09-19T10:05:37.001Z</time>
      </trkpt>
      <trkpt lat="50.17345" lon="3.73568">
        <ele>168.029</ele>
        <time>2019-09-19T10:06:07.001Z</time>
      </trkpt>
      <trkpt lat="50.17111" lon="3.73632">
        <ele>163.794</ele>
        <time>2019-09-19T10:06:37.001Z</time>
      </trkpt>
      <trkpt lat="50.16904" lon="3.73846">
        <ele>151.755</ele>
        <time>2019-09-19T10:07:07.001Z</time>
      </trkpt>
      <trkpt lat="50.16684" lon="3.74081">
        <ele>141.412</ele>
        <time>2019-09-19T10:07:37.001Z</time>
      </trkpt>
      <trkpt lat="50.1652" lon="3.74259">
        <ele>144.013</ele>
        <time>2019-09-19T10:08:07.001Z</time>
      </trkpt>
      <trkpt lat="50.16298" lon="3.74377">
        <ele>137.189</ele>
        <time>2019-09-19T10:08:37.001Z</time>
      </trkpt>
      <trkpt lat="50.16086" lon="3.74355">
        <ele>134.418</ele>
        <time>2019-09-19T10:09:07.001Z</time>
      </trkpt>
      <trkpt lat="50.15873" lon="3.74312">
        <ele>129.529</ele>
        <time>2019-09-19T10:09:37.001Z</time>
      </trkpt>
      <trkpt lat="50.15701" lon="3.74334">
        <ele>134.305</ele>
        <time>2019-09-19T10:10:07.001Z</time>
      </trkpt>
      <trkpt lat="50.15581" lon="3.74375">
        <ele>134.262</ele>
        <time>2019-09-19T10:10:37.001Z</time>
      </trkpt>
      <trkpt lat="50.15431" lon="3.74544">
        <ele>132.799</ele>
        <time>2019-09-19T10:11:07.001Z</time>
      </trkpt>
      <trkpt lat="50.15304" lon="3.74704">
        <ele>129.216</ele>
        <time>2019-09-19T10:11:37.001Z</time>
      </trkpt>
      <trkpt lat="50.15182" lon="3.74856">
        <ele>128.895</ele>
        <time>2019-09-19T10:12:07.001Z</time>
      </trkpt>
      <trkpt lat="50.15085" lon="3.75017">
        <ele>132.104</ele>
        <time>2019-09-19T10:12:37.001Z</time>
      </trkpt>
      <trkpt lat="50.15023" lon="3.75203">
        <ele>131.731</ele>
        <time>2019-09-19T10:13:07.001Z</time>
      </trkpt>
      <trkpt lat="50.14952" lon="3.75394">
        <ele>131.449</ele>
        <time>2019-09-19T10:13:37.001Z</time>
      </trkpt>
      <trkpt lat="50.14833" lon="3.75501">
        <ele>133.449</ele>
        <time>2019-09-19T10:14:07.001Z</time>
      </trkpt>
      <trkpt lat="50.14718" lon="3.75521">
        <ele>134.279</ele>
        <time>2019-09-19T10:14:37.001Z</time>
      </trkpt>
      <trkpt lat="50.14639" lon="3.75571">
        <ele>139.112</ele>
        <time>2019-09-19T10:15:07.001Z</time>
      </trkpt>
      <trkpt lat="50.14562" lon="3.75626">
        <ele>144.016</ele>
        <time>2019-09-19T10:15:37.001Z</time>
      </trkpt>
      <trkpt lat="50.14479" lon="3.75671">
        <ele>143.899</ele>
        <time>2019-09-19T10:16:07.001Z</time>
      </trkpt>
      <trkpt lat="50.14395" lon="3.75712">
        <ele>146.962</ele>
        <time>2019-09-19T10:16:37.001Z</time>
      </trkpt>
      <trkpt lat="50.14313" lon="3.75739">
        <ele>148.309</ele>
        <time>2019-09-19T10:17:07.001Z</time>
      </trkpt>
      <trkpt lat="50.14228" lon="3.75766">
        <ele>149.36</ele>
        <time>2019-09-19T10:17:37.001Z</time>
      </trkpt>
      <trkpt lat="50.14149" lon="3.75868">
        <ele>152.071</ele>
        <time>2019-09-19T10:18:07.001Z</time>
      </trkpt>
      <trkpt lat="50.14095" lon="3.7599">
        <ele>156.085</ele>
        <time>2019-09-19T10:18:37.001Z</time>
      </trkpt>
      <trkpt lat="50.14036" lon="3.76096">
        <ele>155.498</ele>
        <time>2019-09-19T10:19:07.001Z</time>
      </trkpt>
      <trkpt lat="50.13976" lon="3.7622">
        <ele>158.648</ele>
        <time>2019-09-19T10:19:40.001Z</time>
      </trkpt>
      <trkpt lat="50.13956" lon="3.76276">
        <ele>161.226</ele>
        <time>2019-09-19T10:22:34.001Z</time>
      </trkpt>
      <trkpt lat="50.13879" lon="3.76362">
        <ele>159.296</ele>
        <time>2019-09-19T10:23:04.001Z</time>
      </trkpt>
      <trkpt lat="50.13724" lon="3.76294">
        <ele>160.131</ele>
        <time>2019-09-19T10:23:34.001Z</time>
      </trkpt>
      <trkpt lat="50.13566" lon="3.76176">
        <ele>160.015</ele>
        <time>2019-09-19T10:24:04.001Z</time>
      </trkpt>
      <trkpt lat="50.13445" lon="3.76051">
        <ele>166.778</ele>
        <time>2019-09-19T10:24:34.001Z</time>
      </trkpt>
      <trkpt lat="50.13426" lon="3.76069">
        <ele>159.191</ele>
        <time>2019-09-19T10:30:07.001Z</time>
      </trkpt>
      <trkpt lat="50.13439" lon="3.76089">
        <ele>152.018</ele>
        <time>2019-09-19T10:47:34.001Z</time>
      </trkpt>
      <trkpt lat="50.13432" lon="3.76079">
        <ele>146.25</ele>
        <time>2019-09-19T10:49:07.001Z</time>
      </trkpt>
      <trkpt lat="50.13436" lon="3.76077">
        <ele>146.755</ele>
        <time>2019-09-19T10:51:46.001Z</time>
      </trkpt>
      <trkpt lat="50.13389" lon="3.75889">
        <ele>149.9</ele>
        <time>2019-09-19T10:54:22.001Z</time>
      </trkpt>
      <trkpt lat="50.1327" lon="3.75829">
        <ele>142.131</ele>
        <time>2019-09-19T10:54:52.001Z</time>
      </trkpt>
      <trkpt lat="50.13223" lon="3.75908">
        <ele>134.041</ele>
        <time>2019-09-19T10:56:04.001Z</time>
      </trkpt>
      <trkpt lat="50.13121" lon="3.75977">
        <ele>135.899</ele>
        <time>2019-09-19T10:56:34.001Z</time>
      </trkpt>
      <trkpt lat="50.12991" lon="3.76004">
        <ele>135.809</ele>
        <time>2019-09-19T10:57:04.001Z</time>
      </trkpt>
      <trkpt lat="50.12862" lon="3.75982">
        <ele>135.795</ele>
        <time>2019-09-19T10:57:34.001Z</time>
      </trkpt>
      <trkpt lat="50.12751" lon="3.75869">
        <ele>137.285</ele>
        <time>2019-09-19T10:58:04.001Z</time>
      </trkpt>
      <trkpt lat="50.12625" lon="3.75895">
        <ele>137.55</ele>
        <time>2019-09-19T10:58:34.001Z</time>
      </trkpt>
      <trkpt lat="50.12505" lon="3.75862">
        <ele>141.351</ele>
        <time>2019-09-19T10:59:04.001Z</time>
      </trkpt>
      <trkpt lat="50.12365" lon="3.75774">
        <ele>137.248</ele>
        <time>2019-09-19T10:59:34.001Z</time>
      </trkpt>
      <trkpt lat="50.12251" lon="3.75674">
        <ele>136.469</ele>
        <time>2019-09-19T11:00:04.001Z</time>
      </trkpt>
      <trkpt lat="50.12194" lon="3.75789">
        <ele>141.32</ele>
        <time>2019-09-19T11:00:34.001Z</time>
      </trkpt>
      <trkpt lat="50.12109" lon="3.75947">
        <ele>140.448</ele>
        <time>2019-09-19T11:01:04.001Z</time>
      </trkpt>
      <trkpt lat="50.12005" lon="3.76122">
        <ele>137.119</ele>
        <time>2019-09-19T11:01:34.001Z</time>
      </trkpt>
      <trkpt lat="50.11947" lon="3.7627">
        <ele>139.832</ele>
        <time>2019-09-19T11:02:04.001Z</time>
      </trkpt>
      <trkpt lat="50.11995" lon="3.76517">
        <ele>139.181</ele>
        <time>2019-09-19T11:02:34.001Z</time>
      </trkpt>
      <trkpt lat="50.12018" lon="3.76732">
        <ele>138.452</ele>
        <time>2019-09-19T11:03:04.001Z</time>
      </trkpt>
      <trkpt lat="50.11982" lon="3.76988">
        <ele>134.854</ele>
        <time>2019-09-19T11:03:34.001Z</time>
      </trkpt>
      <trkpt lat="50.11975" lon="3.7719">
        <ele>137.282</ele>
        <time>2019-09-19T11:04:04.001Z</time>
      </trkpt>
      <trkpt lat="50.12001" lon="3.77338">
        <ele>141.177</ele>
        <time>2019-09-19T11:04:34.001Z</time>
      </trkpt>
      <trkpt lat="50.12031" lon="3.7752">
        <ele>140.779</ele>
        <time>2019-09-19T11:05:04.001Z</time>
      </trkpt>
      <trkpt lat="50.12008" lon="3.77695">
        <ele>141.338</ele>
        <time>2019-09-19T11:05:34.001Z</time>
      </trkpt>
      <trkpt lat="50.11976" lon="3.77861">
        <ele>143.431</ele>
        <time>2019-09-19T11:06:04.001Z</time>
      </trkpt>
      <trkpt lat="50.11926" lon="3.78118">
        <ele>137.971</ele>
        <time>2019-09-19T11:06:34.001Z</time>
      </trkpt>
      <trkpt lat="50.11901" lon="3.78417">
        <ele>132.714</ele>
        <time>2019-09-19T11:07:04.001Z</time>
      </trkpt>
      <trkpt lat="50.11834" lon="3.78643">
        <ele>134.43</ele>
        <time>2019-09-19T11:07:34.001Z</time>
      </trkpt>
      <trkpt lat="50.11777" lon="3.78848">
        <ele>133.038</ele>
        <time>2019-09-19T11:08:04.001Z</time>
      </trkpt>
      <trkpt lat="50.11728" lon="3.7907">
        <ele>133.387</ele>
        <time>2019-09-19T11:08:34.001Z</time>
      </trkpt>
      <trkpt lat="50.11699" lon="3.79298">
        <ele>135.825</ele>
        <time>2019-09-19T11:09:04.001Z</time>
      </trkpt>
      <trkpt lat="50.11666" lon="3.79521">
        <ele>135.779</ele>
        <time>2019-09-19T11:09:34.001Z</time>
      </trkpt>
      <trkpt lat="50.11602" lon="3.79731">
        <ele>135.468</ele>
        <time>2019-09-19T11:10:04.001Z</time>
      </trkpt>
      <trkpt lat="50.1153" lon="3.79895">
        <ele>141.344</ele>
        <time>2019-09-19T11:10:34.001Z</time>
      </trkpt>
      <trkpt lat="50.1144" lon="3.8004">
        <ele>141.529</ele>
        <time>2019-09-19T11:11:04.001Z</time>
      </trkpt>
      <trkpt lat="50.11377" lon="3.80204">
        <ele>138.252</ele>
        <time>2019-09-19T11:11:34.001Z</time>
      </trkpt>
      <trkpt lat="50.11289" lon="3.80343">
        <ele>136.628</ele>
        <time>2019-09-19T11:12:04.001Z</time>
      </trkpt>
      <trkpt lat="50.11238" lon="3.80501">
        <ele>141.611</ele>
        <time>2019-09-19T11:12:34.001Z</time>
      </trkpt>
      <trkpt lat="50.11147" lon="3.80672">
        <ele>140.231</ele>
        <time>2019-09-19T11:13:04.001Z</time>
      </trkpt>
      <trkpt lat="50.11095" lon="3.80866">
        <ele>137.98</ele>
        <time>2019-09-19T11:13:34.001Z</time>
      </trkpt>
      <trkpt lat="50.10999" lon="3.80973">
        <ele>143.271</ele>
        <time>2019-09-19T11:14:04.001Z</time>
      </trkpt>
      <trkpt lat="50.10984" lon="3.81177">
        <ele>141.811</ele>
        <time>2019-09-19T11:14:34.001Z</time>
      </trkpt>
      <trkpt lat="50.10968" lon="3.81386">
        <ele>137.153</ele>
        <time>2019-09-19T11:15:04.001Z</time>
      </trkpt>
      <trkpt lat="50.10887" lon="3.81493">
        <ele>142.73</ele>
        <time>2019-09-19T11:15:34.001Z</time>
      </trkpt>
      <trkpt lat="50.10799" lon="3.81607">
        <ele>143.526</ele>
        <time>2019-09-19T11:16:04.001Z</time>
      </trkpt>
      <trkpt lat="50.10705" lon="3.81728">
        <ele>145.491</ele>
        <time>2019-09-19T11:16:34.001Z</time>
      </trkpt>
      <trkpt lat="50.10559" lon="3.81818">
        <ele>141.797</ele>
        <time>2019-09-19T11:17:04.001Z</time>
      </trkpt>
      <trkpt lat="50.10398" lon="3.81946">
        <ele>140.225</ele>
        <time>2019-09-19T11:17:34.001Z</time>
      </trkpt>
      <trkpt lat="50.10268" lon="3.82097">
        <ele>140.098</ele>
        <time>2019-09-19T11:18:04.001Z</time>
      </trkpt>
      <trkpt lat="50.10165" lon="3.82245">
        <ele>139.989</ele>
        <time>2019-09-19T11:18:34.001Z</time>
      </trkpt>
      <trkpt lat="50.10057" lon="3.82352">
        <ele>141.883</ele>
        <time>2019-09-19T11:19:04.001Z</time>
      </trkpt>
      <trkpt lat="50.09942" lon="3.82423">
        <ele>144.31</ele>
        <time>2019-09-19T11:19:34.001Z</time>
      </trkpt>
      <trkpt lat="50.09844" lon="3.8257">
        <ele>140.415</ele>
        <time>2019-09-19T11:20:04.001Z</time>
      </trkpt>
      <trkpt lat="50.09823" lon="3.82786">
        <ele>140.033</ele>
        <time>2019-09-19T11:20:34.001Z</time>
      </trkpt>
      <trkpt lat="50.09777" lon="3.82957">
        <ele>146.029</ele>
        <time>2019-09-19T11:21:04.001Z</time>
      </trkpt>
      <trkpt lat="50.09738" lon="3.83143">
        <ele>150.113</ele>
        <time>2019-09-19T11:21:34.001Z</time>
      </trkpt>
      <trkpt lat="50.09711" lon="3.83359">
        <ele>143.651</ele>
        <time>2019-09-19T11:22:04.001Z</time>
      </trkpt>
      <trkpt lat="50.09585" lon="3.83504">
        <ele>141.38</ele>
        <time>2019-09-19T11:22:34.001Z</time>
      </trkpt>
      <trkpt lat="50.09456" lon="3.83506">
        <ele>144.344</ele>
        <time>2019-09-19T11:23:04.001Z</time>
      </trkpt>
      <trkpt lat="50.09363" lon="3.83438">
        <ele>148.107</ele>
        <time>2019-09-19T11:23:34.001Z</time>
      </trkpt>
      <trkpt lat="50.09279" lon="3.83521">
        <ele>150.833</ele>
        <time>2019-09-19T11:24:04.001Z</time>
      </trkpt>
      <trkpt lat="50.09213" lon="3.83655">
        <ele>150.674</ele>
        <time>2019-09-19T11:24:34.001Z</time>
      </trkpt>
      <trkpt lat="50.0917" lon="3.83861">
        <ele>147.259</ele>
        <time>2019-09-19T11:25:04.001Z</time>
      </trkpt>
      <trkpt lat="50.09112" lon="3.84147">
        <ele>143.91</ele>
        <time>2019-09-19T11:25:34.001Z</time>
      </trkpt>
      <trkpt lat="50.09199" lon="3.84333">
        <ele>145.951</ele>
        <time>2019-09-19T11:26:04.001Z</time>
      </trkpt>
      <trkpt lat="50.09268" lon="3.84487">
        <ele>143.047</ele>
        <time>2019-09-19T11:26:34.001Z</time>
      </trkpt>
      <trkpt lat="50.09279" lon="3.84614">
        <ele>146.255</ele>
        <time>2019-09-19T11:27:04.001Z</time>
      </trkpt>
      <trkpt lat="50.09226" lon="3.84731">
        <ele>149.717</ele>
        <time>2019-09-19T11:27:34.001Z</time>
      </trkpt>
      <trkpt lat="50.09189" lon="3.84828">
        <ele>150.71</ele>
        <time>2019-09-19T11:28:04.001Z</time>
      </trkpt>
      <trkpt lat="50.09108" lon="3.85">
        <ele>151.403</ele>
        <time>2019-09-19T11:28:34.001Z</time>
      </trkpt>
      <trkpt lat="50.08995" lon="3.8516">
        <ele>147.945</ele>
        <time>2019-09-19T11:29:04.001Z</time>
      </trkpt>
      <trkpt lat="50.08848" lon="3.85333">
        <ele>147.327</ele>
        <time>2019-09-19T11:29:34.001Z</time>
      </trkpt>
      <trkpt lat="50.08713" lon="3.85538">
        <ele>140.906</ele>
        <time>2019-09-19T11:30:04.001Z</time>
      </trkpt>
      <trkpt lat="50.0861" lon="3.85636">
        <ele>142.65</ele>
        <time>2019-09-19T11:30:34.001Z</time>
      </trkpt>
      <trkpt lat="50.08517" lon="3.85635">
        <ele>148.506</ele>
        <time>2019-09-19T11:31:04.001Z</time>
      </trkpt>
      <trkpt lat="50.08438" lon="3.85655">
        <ele>153.372</ele>
        <time>2019-09-19T11:31:34.001Z</time>
      </trkpt>
      <trkpt lat="50.08377" lon="3.85741">
        <ele>155.542</ele>
        <time>2019-09-19T11:32:04.001Z</time>
      </trkpt>
      <trkpt lat="50.08324" lon="3.85851">
        <ele>153.375</ele>
        <time>2019-09-19T11:32:34.001Z</time>
      </trkpt>
      <trkpt lat="50.08263" lon="3.85951">
        <ele>158.921</ele>
        <time>2019-09-19T11:33:04.001Z</time>
      </trkpt>
      <trkpt lat="50.08186" lon="3.861">
        <ele>156.111</ele>
        <time>2019-09-19T11:33:34.001Z</time>
      </trkpt>
      <trkpt lat="50.08154" lon="3.86307">
        <ele>156.226</ele>
        <time>2019-09-19T11:34:04.001Z</time>
      </trkpt>
      <trkpt lat="50.08115" lon="3.86481">
        <ele>157.206</ele>
        <time>2019-09-19T11:34:34.001Z</time>
      </trkpt>
      <trkpt lat="50.08063" lon="3.86593">
        <ele>161.115</ele>
        <time>2019-09-19T11:35:04.001Z</time>
      </trkpt>
      <trkpt lat="50.08016" lon="3.86701">
        <ele>162.526</ele>
        <time>2019-09-19T11:35:34.001Z</time>
      </trkpt>
      <trkpt lat="50.07982" lon="3.86859">
        <ele>163.116</ele>
        <time>2019-09-19T11:36:04.001Z</time>
      </trkpt>
      <trkpt lat="50.07958" lon="3.87041">
        <ele>161.005</ele>
        <time>2019-09-19T11:36:34.001Z</time>
      </trkpt>
      <trkpt lat="50.07916" lon="3.87194">
        <ele>162.1</ele>
        <time>2019-09-19T11:37:04.001Z</time>
      </trkpt>
      <trkpt lat="50.07846" lon="3.87344">
        <ele>163.01</ele>
        <time>2019-09-19T11:37:34.001Z</time>
      </trkpt>
      <trkpt lat="50.07868" lon="3.87554">
        <ele>159.984</ele>
        <time>2019-09-19T11:38:04.001Z</time>
      </trkpt>
      <trkpt lat="50.07912" lon="3.878">
        <ele>155.903</ele>
        <time>2019-09-19T11:38:34.001Z</time>
      </trkpt>
      <trkpt lat="50.07892" lon="3.87945">
        <ele>159.484</ele>
        <time>2019-09-19T11:39:04.001Z</time>
      </trkpt>
      <trkpt lat="50.07976" lon="3.88091">
        <ele>158.693</ele>
        <time>2019-09-19T11:39:34.001Z</time>
      </trkpt>
      <trkpt lat="50.08056" lon="3.88337">
        <ele>152.928</ele>
        <time>2019-09-19T11:40:04.001Z</time>
      </trkpt>
      <trkpt lat="50.0802" lon="3.88643">
        <ele>145.632</ele>
        <time>2019-09-19T11:40:34.001Z</time>
      </trkpt>
      <trkpt lat="50.08055" lon="3.88871">
        <ele>146.228</ele>
        <time>2019-09-19T11:41:04.001Z</time>
      </trkpt>
      <trkpt lat="50.08091" lon="3.89081">
        <ele>144.399</ele>
        <time>2019-09-19T11:41:34.001Z</time>
      </trkpt>
      <trkpt lat="50.08073" lon="3.8925">
        <ele>147.316</ele>
        <time>2019-09-19T11:42:04.001Z</time>
      </trkpt>
      <trkpt lat="50.08003" lon="3.89361">
        <ele>150.865</ele>
        <time>2019-09-19T11:42:34.001Z</time>
      </trkpt>
      <trkpt lat="50.07931" lon="3.89414">
        <ele>159.609</ele>
        <time>2019-09-19T11:43:04.001Z</time>
      </trkpt>
      <trkpt lat="50.07876" lon="3.89502">
        <ele>162.629</ele>
        <time>2019-09-19T11:43:34.001Z</time>
      </trkpt>
      <trkpt lat="50.07841" lon="3.89618">
        <ele>167.108</ele>
        <time>2019-09-19T11:44:04.001Z</time>
      </trkpt>
      <trkpt lat="50.07774" lon="3.89755">
        <ele>163.168</ele>
        <time>2019-09-19T11:44:34.001Z</time>
      </trkpt>
      <trkpt lat="50.07749" lon="3.89939">
        <ele>160.801</ele>
        <time>2019-09-19T11:45:04.001Z</time>
      </trkpt>
      <trkpt lat="50.07587" lon="3.90169">
        <ele>149.512</ele>
        <time>2019-09-19T11:45:34.001Z</time>
      </trkpt>
      <trkpt lat="50.07614" lon="3.90422">
        <ele>145.971</ele>
        <time>2019-09-19T11:46:04.001Z</time>
      </trkpt>
      <trkpt lat="50.07641" lon="3.90613">
        <ele>148.378</ele>
        <time>2019-09-19T11:46:34.001Z</time>
      </trkpt>
      <trkpt lat="50.07621" lon="3.90806">
        <ele>152.838</ele>
        <time>2019-09-19T11:47:04.001Z</time>
      </trkpt>
      <trkpt lat="50.07625" lon="3.90982">
        <ele>151.657</ele>
        <time>2019-09-19T11:47:34.001Z</time>
      </trkpt>
      <trkpt lat="50.07633" lon="3.91164">
        <ele>151.909</ele>
        <time>2019-09-19T11:48:04.001Z</time>
      </trkpt>
      <trkpt lat="50.07617" lon="3.91356">
        <ele>150.189</ele>
        <time>2019-09-19T11:48:34.001Z</time>
      </trkpt>
      <trkpt lat="50.07622" lon="3.91544">
        <ele>152.471</ele>
        <time>2019-09-19T11:49:04.001Z</time>
      </trkpt>
      <trkpt lat="50.07537" lon="3.91647">
        <ele>152.317</ele>
        <time>2019-09-19T11:49:34.001Z</time>
      </trkpt>
      <trkpt lat="50.07386" lon="3.91688">
        <ele>149.993</ele>
        <time>2019-09-19T11:50:04.001Z</time>
      </trkpt>
      <trkpt lat="50.07318" lon="3.91865">
        <ele>150.172</ele>
        <time>2019-09-19T11:50:34.001Z</time>
      </trkpt>
      <trkpt lat="50.07248" lon="3.92054">
        <ele>150.571</ele>
        <time>2019-09-19T11:51:04.001Z</time>
      </trkpt>
      <trkpt lat="50.07193" lon="3.92244">
        <ele>151.219</ele>
        <time>2019-09-19T11:51:34.001Z</time>
      </trkpt>
      <trkpt lat="50.0716" lon="3.92446">
        <ele>150.16</ele>
        <time>2019-09-19T11:52:04.001Z</time>
      </trkpt>
      <trkpt lat="50.07062" lon="3.92592">
        <ele>151.01</ele>
        <time>2019-09-19T11:52:34.001Z</time>
      </trkpt>
      <trkpt lat="50.06949" lon="3.92709">
        <ele>151.903</ele>
        <time>2019-09-19T11:53:04.001Z</time>
      </trkpt>
      <trkpt lat="50.06831" lon="3.92793">
        <ele>151.737</ele>
        <time>2019-09-19T11:53:34.001Z</time>
      </trkpt>
      <trkpt lat="50.06793" lon="3.92849">
        <ele>154.693</ele>
        <time>2019-09-19T11:55:16.000Z</time>
      </trkpt>
      <trkpt lat="50.06697" lon="3.92876">
        <ele>155.204</ele>
        <time>2019-09-19T11:55:49.001Z</time>
      </trkpt>
      <trkpt lat="50.06567" lon="3.92894">
        <ele>156.021</ele>
        <time>2019-09-19T11:56:19.001Z</time>
      </trkpt>
      <trkpt lat="50.0643" lon="3.92912">
        <ele>156.806</ele>
        <time>2019-09-19T11:56:49.001Z</time>
      </trkpt>
      <trkpt lat="50.06305" lon="3.9293">
        <ele>156.392</ele>
        <time>2019-09-19T11:57:19.001Z</time>
      </trkpt>
      <trkpt lat="50.06151" lon="3.92914">
        <ele>154.098</ele>
        <time>2019-09-19T11:57:49.001Z</time>
      </trkpt>
      <trkpt lat="50.06105" lon="3.92907">
        <ele>156.827</ele>
        <time>2019-09-19T12:01:49.001Z</time>
      </trkpt>
      <trkpt lat="50.06069" lon="3.92887">
        <ele>155.075</ele>
        <time>2019-09-19T12:02:34.001Z</time>
      </trkpt>
      <trkpt lat="50.0604" lon="3.92861">
        <ele>152.415</ele>
        <time>2019-09-19T12:06:43.001Z</time>
      </trkpt>
      <trkpt lat="50.06048" lon="3.92859">
        <ele>151.265</ele>
        <time>2019-09-19T12:07:28.001Z</time>
      </trkpt>
      <trkpt lat="50.06048" lon="3.92859">
        <ele>151.265</ele>
        <time>2019-09-19T12:08:52.001Z</time>
      </trkpt>
      <trkpt lat="50.06043" lon="3.92857">
        <ele>151.57</ele>
        <time>2019-09-19T12:12:49.001Z</time>
      </trkpt>
      <trkpt lat="50.06037" lon="3.92854">
        <ele>151.799</ele>
        <time>2019-09-19T12:30:52.001Z</time>
      </trkpt>
      <trkpt lat="50.06009" lon="3.92845">
        <ele>155.043</ele>
        <time>2019-09-19T12:31:46.001Z</time>
      </trkpt>
      <trkpt lat="50.06047" lon="3.92863">
        <ele>154.64</ele>
        <time>2019-09-19T12:32:58.001Z</time>
      </trkpt>
      <trkpt lat="50.06048" lon="3.92865">
        <ele>156.503</ele>
        <time>2019-09-19T12:36:13.001Z</time>
      </trkpt>
      <trkpt lat="50.06043" lon="3.92854">
        <ele>157.523</ele>
        <time>2019-09-19T12:37:37.001Z</time>
      </trkpt>
      <trkpt lat="50.06043" lon="3.92858">
        <ele>156.732</ele>
        <time>2019-09-19T12:41:49.001Z</time>
      </trkpt>
      <trkpt lat="50.06044" lon="3.92853">
        <ele>154.291</ele>
        <time>2019-09-19T12:43:01.001Z</time>
      </trkpt>
      <trkpt lat="50.06044" lon="3.92853">
        <ele>154.291</ele>
        <time>2019-09-19T12:44:10.001Z</time>
      </trkpt>
      <trkpt lat="50.06044" lon="3.92853">
        <ele>154.291</ele>
        <time>2019-09-19T12:55:40.001Z</time>
      </trkpt>
      <trkpt lat="50.06043" lon="3.92853">
        <ele>154.897</ele>
        <time>2019-09-19T13:00:40.001Z</time>
      </trkpt>
      <trkpt lat="50.06122" lon="3.9291">
        <ele>156.38</ele>
        <time>2019-09-19T13:02:10.001Z</time>
      </trkpt>
      <trkpt lat="50.06127" lon="3.93094">
        <ele>161.596</ele>
        <time>2019-09-19T13:02:40.001Z</time>
      </trkpt>
      <trkpt lat="50.0613" lon="3.93268">
        <ele>161.238</ele>
        <time>2019-09-19T13:03:10.001Z</time>
      </trkpt>
      <trkpt lat="50.06196" lon="3.93427">
        <ele>149.841</ele>
        <time>2019-09-19T13:03:40.001Z</time>
      </trkpt>
      <trkpt lat="50.06229" lon="3.93597">
        <ele>154.994</ele>
        <time>2019-09-19T13:04:10.001Z</time>
      </trkpt>
      <trkpt lat="50.06229" lon="3.93753">
        <ele>159.68</ele>
        <time>2019-09-19T13:04:40.001Z</time>
      </trkpt>
      <trkpt lat="50.06236" lon="3.93871">
        <ele>165.289</ele>
        <time>2019-09-19T13:05:10.001Z</time>
      </trkpt>
      <trkpt lat="50.06241" lon="3.93977">
        <ele>168.826</ele>
        <time>2019-09-19T13:05:40.001Z</time>
      </trkpt>
      <trkpt lat="50.0624" lon="3.94086">
        <ele>171.112</ele>
        <time>2019-09-19T13:06:10.001Z</time>
      </trkpt>
      <trkpt lat="50.06245" lon="3.94243">
        <ele>173.355</ele>
        <time>2019-09-19T13:06:40.001Z</time>
      </trkpt>
      <trkpt lat="50.06305" lon="3.94524">
        <ele>160.225</ele>
        <time>2019-09-19T13:07:10.001Z</time>
      </trkpt>
      <trkpt lat="50.06248" lon="3.94732">
        <ele>156.646</ele>
        <time>2019-09-19T13:07:40.001Z</time>
      </trkpt>
      <trkpt lat="50.06178" lon="3.94898">
        <ele>159.887</ele>
        <time>2019-09-19T13:08:10.001Z</time>
      </trkpt>
      <trkpt lat="50.06098" lon="3.95072">
        <ele>162.826</ele>
        <time>2019-09-19T13:08:40.001Z</time>
      </trkpt>
      <trkpt lat="50.06057" lon="3.95191">
        <ele>163.672</ele>
        <time>2019-09-19T13:09:10.001Z</time>
      </trkpt>
      <trkpt lat="50.06034" lon="3.95312">
        <ele>166.681</ele>
        <time>2019-09-19T13:09:40.001Z</time>
      </trkpt>
      <trkpt lat="50.06016" lon="3.95399">
        <ele>175.117</ele>
        <time>2019-09-19T13:10:10.001Z</time>
      </trkpt>
      <trkpt lat="50.05999" lon="3.95487">
        <ele>179.057</ele>
        <time>2019-09-19T13:10:40.001Z</time>
      </trkpt>
      <trkpt lat="50.05993" lon="3.95591">
        <ele>183.287</ele>
        <time>2019-09-19T13:11:10.001Z</time>
      </trkpt>
      <trkpt lat="50.0603" lon="3.95726">
        <ele>183.323</ele>
        <time>2019-09-19T13:11:40.001Z</time>
      </trkpt>
      <trkpt lat="50.06146" lon="3.95998">
        <ele>171.487</ele>
        <time>2019-09-19T13:12:10.001Z</time>
      </trkpt>
      <trkpt lat="50.06105" lon="3.96405">
        <ele>156.407</ele>
        <time>2019-09-19T13:12:40.001Z</time>
      </trkpt>
      <trkpt lat="50.05975" lon="3.96474">
        <ele>159.845</ele>
        <time>2019-09-19T13:13:13.001Z</time>
      </trkpt>
      <trkpt lat="50.05843" lon="3.96581">
        <ele>161.509</ele>
        <time>2019-09-19T13:13:43.001Z</time>
      </trkpt>
      <trkpt lat="50.05768" lon="3.96688">
        <ele>166.186</ele>
        <time>2019-09-19T13:14:13.001Z</time>
      </trkpt>
      <trkpt lat="50.05719" lon="3.96837">
        <ele>168.648</ele>
        <time>2019-09-19T13:14:43.001Z</time>
      </trkpt>
      <trkpt lat="50.05617" lon="3.97015">
        <ele>165.686</ele>
        <time>2019-09-19T13:15:13.001Z</time>
      </trkpt>
      <trkpt lat="50.05547" lon="3.97222">
        <ele>166.361</ele>
        <time>2019-09-19T13:15:43.001Z</time>
      </trkpt>
      <trkpt lat="50.05535" lon="3.97375">
        <ele>172.084</ele>
        <time>2019-09-19T13:16:13.001Z</time>
      </trkpt>
      <trkpt lat="50.05528" lon="3.976">
        <ele>174.822</ele>
        <time>2019-09-19T13:16:43.001Z</time>
      </trkpt>
      <trkpt lat="50.05511" lon="3.97847">
        <ele>179.915</ele>
        <time>2019-09-19T13:17:13.001Z</time>
      </trkpt>
      <trkpt lat="50.05474" lon="3.98091">
        <ele>177.527</ele>
        <time>2019-09-19T13:17:43.001Z</time>
      </trkpt>
      <trkpt lat="50.05568" lon="3.98363">
        <ele>170.139</ele>
        <time>2019-09-19T13:18:13.001Z</time>
      </trkpt>
      <trkpt lat="50.05654" lon="3.98511">
        <ele>163.033</ele>
        <time>2019-09-19T13:18:43.001Z</time>
      </trkpt>
      <trkpt lat="50.05635" lon="3.98654">
        <ele>164.626</ele>
        <time>2019-09-19T13:19:13.001Z</time>
      </trkpt>
      <trkpt lat="50.05628" lon="3.988">
        <ele>163.302</ele>
        <time>2019-09-19T13:19:43.001Z</time>
      </trkpt>
      <trkpt lat="50.05582" lon="3.99021">
        <ele>162.637</ele>
        <time>2019-09-19T13:20:13.001Z</time>
      </trkpt>
      <trkpt lat="50.05526" lon="3.99162">
        <ele>162.64</ele>
        <time>2019-09-19T13:20:43.001Z</time>
      </trkpt>
      <trkpt lat="50.05455" lon="3.99319">
        <ele>164.292</ele>
        <time>2019-09-19T13:21:13.001Z</time>
      </trkpt>
      <trkpt lat="50.05422" lon="3.9942">
        <ele>171.405</ele>
        <time>2019-09-19T13:21:43.001Z</time>
      </trkpt>
      <trkpt lat="50.05392" lon="3.9952">
        <ele>176.51</ele>
        <time>2019-09-19T13:22:13.001Z</time>
      </trkpt>
      <trkpt lat="50.05363" lon="3.99636">
        <ele>178.596</ele>
        <time>2019-09-19T13:22:43.001Z</time>
      </trkpt>
      <trkpt lat="50.05309" lon="3.99907">
        <ele>172.539</ele>
        <time>2019-09-19T13:23:13.001Z</time>
      </trkpt>
      <trkpt lat="50.0524" lon="4.00202">
        <ele>166.263</ele>
        <time>2019-09-19T13:23:43.001Z</time>
      </trkpt>
      <trkpt lat="50.05154" lon="4.00378">
        <ele>163.162</ele>
        <time>2019-09-19T13:24:13.001Z</time>
      </trkpt>
      <trkpt lat="50.05044" lon="4.00526">
        <ele>161.064</ele>
        <time>2019-09-19T13:24:43.001Z</time>
      </trkpt>
      <trkpt lat="50.0501" lon="4.00723">
        <ele>162.078</ele>
        <time>2019-09-19T13:25:13.001Z</time>
      </trkpt>
      <trkpt lat="50.04975" lon="4.00895">
        <ele>164.756</ele>
        <time>2019-09-19T13:25:43.001Z</time>
      </trkpt>
      <trkpt lat="50.04986" lon="4.0105">
        <ele>167.725</ele>
        <time>2019-09-19T13:26:13.001Z</time>
      </trkpt>
      <trkpt lat="50.04994" lon="4.0122">
        <ele>170.251</ele>
        <time>2019-09-19T13:26:43.001Z</time>
      </trkpt>
      <trkpt lat="50.04969" lon="4.01425">
        <ele>165.978</ele>
        <time>2019-09-19T13:27:13.001Z</time>
      </trkpt>
      <trkpt lat="50.04939" lon="4.01588">
        <ele>168.419</ele>
        <time>2019-09-19T13:27:43.001Z</time>
      </trkpt>
      <trkpt lat="50.04892" lon="4.01738">
        <ele>169.687</ele>
        <time>2019-09-19T13:28:13.001Z</time>
      </trkpt>
      <trkpt lat="50.04818" lon="4.01844">
        <ele>171.54</ele>
        <time>2019-09-19T13:28:43.001Z</time>
      </trkpt>
      <trkpt lat="50.0469" lon="4.02021">
        <ele>168.024</ele>
        <time>2019-09-19T13:29:13.001Z</time>
      </trkpt>
      <trkpt lat="50.04614" lon="4.02151">
        <ele>174.568</ele>
        <time>2019-09-19T13:29:43.001Z</time>
      </trkpt>
      <trkpt lat="50.04567" lon="4.0225">
        <ele>185.265</ele>
        <time>2019-09-19T13:30:13.001Z</time>
      </trkpt>
      <trkpt lat="50.04522" lon="4.02375">
        <ele>194.008</ele>
        <time>2019-09-19T13:30:43.001Z</time>
      </trkpt>
      <trkpt lat="50.04479" lon="4.025">
        <ele>185.337</ele>
        <time>2019-09-19T13:31:13.001Z</time>
      </trkpt>
      <trkpt lat="50.04363" lon="4.02564">
        <ele>178.629</ele>
        <time>2019-09-19T13:31:43.001Z</time>
      </trkpt>
      <trkpt lat="50.04313" lon="4.02594">
        <ele>176.864</ele>
        <time>2019-09-19T13:34:01.001Z</time>
      </trkpt>
      <trkpt lat="50.04235" lon="4.0266">
        <ele>179.829</ele>
        <time>2019-09-19T13:34:31.001Z</time>
      </trkpt>
      <trkpt lat="50.04171" lon="4.02685">
        <ele>186.172</ele>
        <time>2019-09-19T13:35:01.001Z</time>
      </trkpt>
      <trkpt lat="50.0411" lon="4.02738">
        <ele>191.731</ele>
        <time>2019-09-19T13:35:34.001Z</time>
      </trkpt>
      <trkpt lat="50.04115" lon="4.02939">
        <ele>187.265</ele>
        <time>2019-09-19T13:36:04.001Z</time>
      </trkpt>
      <trkpt lat="50.04105" lon="4.0313">
        <ele>188.105</ele>
        <time>2019-09-19T13:36:34.001Z</time>
      </trkpt>
      <trkpt lat="50.04093" lon="4.03328">
        <ele>188.557</ele>
        <time>2019-09-19T13:37:04.001Z</time>
      </trkpt>
      <trkpt lat="50.04085" lon="4.0347">
        <ele>193.129</ele>
        <time>2019-09-19T13:37:34.001Z</time>
      </trkpt>
      <trkpt lat="50.04057" lon="4.03615">
        <ele>192.176</ele>
        <time>2019-09-19T13:38:04.001Z</time>
      </trkpt>
      <trkpt lat="50.04032" lon="4.03799">
        <ele>191.94</ele>
        <time>2019-09-19T13:38:34.001Z</time>
      </trkpt>
      <trkpt lat="50.04022" lon="4.03924">
        <ele>197.687</ele>
        <time>2019-09-19T13:39:04.001Z</time>
      </trkpt>
      <trkpt lat="50.04051" lon="4.04123">
        <ele>203.226</ele>
        <time>2019-09-19T13:39:34.001Z</time>
      </trkpt>
      <trkpt lat="50.04092" lon="4.04439">
        <ele>201.017</ele>
        <time>2019-09-19T13:40:04.001Z</time>
      </trkpt>
      <trkpt lat="50.0408" lon="4.04644">
        <ele>202.123</ele>
        <time>2019-09-19T13:40:34.001Z</time>
      </trkpt>
      <trkpt lat="50.04024" lon="4.0473">
        <ele>196.358</ele>
        <time>2019-09-19T13:41:04.001Z</time>
      </trkpt>
      <trkpt lat="50.03989" lon="4.04838">
        <ele>206.865</ele>
        <time>2019-09-19T13:41:34.001Z</time>
      </trkpt>
      <trkpt lat="50.03964" lon="4.04968">
        <ele>220.182</ele>
        <time>2019-09-19T13:42:04.001Z</time>
      </trkpt>
      <trkpt lat="50.03941" lon="4.05103">
        <ele>225.895</ele>
        <time>2019-09-19T13:42:34.001Z</time>
      </trkpt>
      <trkpt lat="50.03905" lon="4.05232">
        <ele>210.84</ele>
        <time>2019-09-19T13:43:04.001Z</time>
      </trkpt>
      <trkpt lat="50.03859" lon="4.05315">
        <ele>210.887</ele>
        <time>2019-09-19T13:43:34.001Z</time>
      </trkpt>
      <trkpt lat="50.03804" lon="4.05376">
        <ele>215.559</ele>
        <time>2019-09-19T13:44:04.001Z</time>
      </trkpt>
      <trkpt lat="50.0375" lon="4.0544">
        <ele>220.201</ele>
        <time>2019-09-19T13:44:34.001Z</time>
      </trkpt>
      <trkpt lat="50.03727" lon="4.05559">
        <ele>221.313</ele>
        <time>2019-09-19T13:45:04.001Z</time>
      </trkpt>
      <trkpt lat="50.03826" lon="4.05708">
        <ele>214.397</ele>
        <time>2019-09-19T13:45:34.001Z</time>
      </trkpt>
      <trkpt lat="50.03821" lon="4.05956">
        <ele>207.76</ele>
        <time>2019-09-19T13:46:04.001Z</time>
      </trkpt>
      <trkpt lat="50.03775" lon="4.06041">
        <ele>212.7</ele>
        <time>2019-09-19T13:46:34.001Z</time>
      </trkpt>
      <trkpt lat="50.03722" lon="4.06108">
        <ele>219.803</ele>
        <time>2019-09-19T13:47:04.001Z</time>
      </trkpt>
      <trkpt lat="50.03695" lon="4.06216">
        <ele>222.137</ele>
        <time>2019-09-19T13:47:34.001Z</time>
      </trkpt>
      <trkpt lat="50.03693" lon="4.06338">
        <ele>230.524</ele>
        <time>2019-09-19T13:48:04.001Z</time>
      </trkpt>
      <trkpt lat="50.03711" lon="4.06463">
        <ele>228.286</ele>
        <time>2019-09-19T13:48:34.001Z</time>
      </trkpt>
      <trkpt lat="50.03727" lon="4.06585">
        <ele>233.361</ele>
        <time>2019-09-19T13:49:04.001Z</time>
      </trkpt>
      <trkpt lat="50.03742" lon="4.06716">
        <ele>236.653</ele>
        <time>2019-09-19T13:49:34.001Z</time>
      </trkpt>
      <trkpt lat="50.03732" lon="4.06842">
        <ele>236.92</ele>
        <time>2019-09-19T13:50:04.001Z</time>
      </trkpt>
      <trkpt lat="50.0373" lon="4.06919">
        <ele>232.542</ele>
        <time>2019-09-19T13:52:22.001Z</time>
      </trkpt>
      <trkpt lat="50.03781" lon="4.07061">
        <ele>231.384</ele>
        <time>2019-09-19T13:52:52.001Z</time>
      </trkpt>
      <trkpt lat="50.03921" lon="4.07154">
        <ele>221.539</ele>
        <time>2019-09-19T13:53:22.001Z</time>
      </trkpt>
      <trkpt lat="50.04019" lon="4.07356">
        <ele>219.781</ele>
        <time>2019-09-19T13:53:52.001Z</time>
      </trkpt>
      <trkpt lat="50.04072" lon="4.07476">
        <ele>224.048</ele>
        <time>2019-09-19T13:54:22.001Z</time>
      </trkpt>
      <trkpt lat="50.04181" lon="4.07497">
        <ele>224.169</ele>
        <time>2019-09-19T13:54:52.001Z</time>
      </trkpt>
      <trkpt lat="50.04175" lon="4.07496">
        <ele>224.039</ele>
        <time>2019-09-19T13:55:22.001Z</time>
      </trkpt>
      <trkpt lat="50.04115" lon="4.07565">
        <ele>227.445</ele>
        <time>2019-09-19T13:55:52.001Z</time>
      </trkpt>
      <trkpt lat="50.0413" lon="4.077">
        <ele>228.958</ele>
        <time>2019-09-19T13:56:22.001Z</time>
      </trkpt>
      <trkpt lat="50.04143" lon="4.07814">
        <ele>233.608</ele>
        <time>2019-09-19T13:56:52.001Z</time>
      </trkpt>
      <trkpt lat="50.04143" lon="4.07825">
        <ele>231.637</ele>
        <time>2019-09-19T14:00:16.000Z</time>
      </trkpt>
      <trkpt lat="50.04116" lon="4.07582">
        <ele>228.27</ele>
        <time>2019-09-19T14:00:46.001Z</time>
      </trkpt>
      <trkpt lat="50.0424" lon="4.07521">
        <ele>223.139</ele>
        <time>2019-09-19T14:01:16.000Z</time>
      </trkpt>
      <trkpt lat="50.04342" lon="4.07633">
        <ele>222.606</ele>
        <time>2019-09-19T14:01:46.001Z</time>
      </trkpt>
      <trkpt lat="50.04437" lon="4.07753">
        <ele>225.128</ele>
        <time>2019-09-19T14:02:16.000Z</time>
      </trkpt>
      <trkpt lat="50.04481" lon="4.07934">
        <ele>221.24</ele>
        <time>2019-09-19T14:02:46.001Z</time>
      </trkpt>
      <trkpt lat="50.04538" lon="4.08139">
        <ele>219.2</ele>
        <time>2019-09-19T14:03:16.000Z</time>
      </trkpt>
      <trkpt lat="50.04622" lon="4.08272">
        <ele>221.895</ele>
        <time>2019-09-19T14:03:46.001Z</time>
      </trkpt>
      <trkpt lat="50.04659" lon="4.08463">
        <ele>219.89</ele>
        <time>2019-09-19T14:04:16.000Z</time>
      </trkpt>
      <trkpt lat="50.04547" lon="4.08423">
        <ele>219.28</ele>
        <time>2019-09-19T14:04:46.001Z</time>
      </trkpt>
      <trkpt lat="50.04444" lon="4.08373">
        <ele>219.825</ele>
        <time>2019-09-19T14:05:16.000Z</time>
      </trkpt>
      <trkpt lat="50.04357" lon="4.08332">
        <ele>228.205</ele>
        <time>2019-09-19T14:05:46.001Z</time>
      </trkpt>
      <trkpt lat="50.04275" lon="4.08364">
        <ele>229.808</ele>
        <time>2019-09-19T14:06:16.000Z</time>
      </trkpt>
      <trkpt lat="50.04252" lon="4.08504">
        <ele>228.066</ele>
        <time>2019-09-19T14:06:46.001Z</time>
      </trkpt>
      <trkpt lat="50.04238" lon="4.08622">
        <ele>231.446</ele>
        <time>2019-09-19T14:07:16.000Z</time>
      </trkpt>
      <trkpt lat="50.04232" lon="4.08823">
        <ele>233.287</ele>
        <time>2019-09-19T14:07:46.001Z</time>
      </trkpt>
      <trkpt lat="50.0424" lon="4.09037">
        <ele>228.269</ele>
        <time>2019-09-19T14:08:16.000Z</time>
      </trkpt>
      <trkpt lat="50.04168" lon="4.09063">
        <ele>232.692</ele>
        <time>2019-09-19T14:08:46.001Z</time>
      </trkpt>
      <trkpt lat="50.04105" lon="4.09091">
        <ele>235.094</ele>
        <time>2019-09-19T14:09:16.000Z</time>
      </trkpt>
      <trkpt lat="50.0408" lon="4.09185">
        <ele>246.601</ele>
        <time>2019-09-19T14:09:46.001Z</time>
      </trkpt>
      <trkpt lat="50.04095" lon="4.09325">
        <ele>243.879</ele>
        <time>2019-09-19T14:10:16.000Z</time>
      </trkpt>
      <trkpt lat="50.0412" lon="4.0951">
        <ele>245.931</ele>
        <time>2019-09-19T14:10:46.001Z</time>
      </trkpt>
      <trkpt lat="50.04109" lon="4.09645">
        <ele>241.497</ele>
        <time>2019-09-19T14:11:16.000Z</time>
      </trkpt>
      <trkpt lat="50.04055" lon="4.09756">
        <ele>245.428</ele>
        <time>2019-09-19T14:11:46.001Z</time>
      </trkpt>
      <trkpt lat="50.03991" lon="4.09814">
        <ele>245.311</ele>
        <time>2019-09-19T14:13:31.001Z</time>
      </trkpt>
      <trkpt lat="50.03897" lon="4.09791">
        <ele>246.562</ele>
        <time>2019-09-19T14:14:01.001Z</time>
      </trkpt>
      <trkpt lat="50.0379" lon="4.0976">
        <ele>244.469</ele>
        <time>2019-09-19T14:14:31.001Z</time>
      </trkpt>
      <trkpt lat="50.03692" lon="4.09659">
        <ele>246.367</ele>
        <time>2019-09-19T14:15:01.001Z</time>
      </trkpt>
      <trkpt lat="50.03608" lon="4.09576">
        <ele>254.492</ele>
        <time>2019-09-19T14:15:31.001Z</time>
      </trkpt>
      <trkpt lat="50.03546" lon="4.09659">
        <ele>264.384</ele>
        <time>2019-09-19T14:16:01.001Z</time>
      </trkpt>
      <trkpt lat="50.03496" lon="4.09899">
        <ele>266.824</ele>
        <time>2019-09-19T14:16:31.001Z</time>
      </trkpt>
      <trkpt lat="50.03458" lon="4.10135">
        <ele>256.957</ele>
        <time>2019-09-19T14:17:01.001Z</time>
      </trkpt>
      <trkpt lat="50.03494" lon="4.10301">
        <ele>251.004</ele>
        <time>2019-09-19T14:17:31.001Z</time>
      </trkpt>
      <trkpt lat="50.03527" lon="4.10436">
        <ele>246.152</ele>
        <time>2019-09-19T14:18:01.001Z</time>
      </trkpt>
      <trkpt lat="50.03496" lon="4.10513">
        <ele>248.209</ele>
        <time>2019-09-19T14:18:31.001Z</time>
      </trkpt>
      <trkpt lat="50.03335" lon="4.10547">
        <ele>244.331</ele>
        <time>2019-09-19T14:19:01.001Z</time>
      </trkpt>
      <trkpt lat="50.03212" lon="4.1055">
        <ele>244.229</ele>
        <time>2019-09-19T14:19:31.001Z</time>
      </trkpt>
      <trkpt lat="50.03041" lon="4.10524">
        <ele>240.757</ele>
        <time>2019-09-19T14:20:01.001Z</time>
      </trkpt>
      <trkpt lat="50.02885" lon="4.10476">
        <ele>234.506</ele>
        <time>2019-09-19T14:20:31.001Z</time>
      </trkpt>
      <trkpt lat="50.02818" lon="4.10678">
        <ele>230.378</ele>
        <time>2019-09-19T14:21:01.001Z</time>
      </trkpt>
      <trkpt lat="50.02749" lon="4.1078">
        <ele>233.73</ele>
        <time>2019-09-19T14:21:31.001Z</time>
      </trkpt>
      <trkpt lat="50.02728" lon="4.10879">
        <ele>238.816</ele>
        <time>2019-09-19T14:22:01.001Z</time>
      </trkpt>
      <trkpt lat="50.02721" lon="4.10991">
        <ele>240.096</ele>
        <time>2019-09-19T14:22:31.001Z</time>
      </trkpt>
      <trkpt lat="50.02749" lon="4.11086">
        <ele>238.963</ele>
        <time>2019-09-19T14:23:01.001Z</time>
      </trkpt>
      <trkpt lat="50.02778" lon="4.1119">
        <ele>245.069</ele>
        <time>2019-09-19T14:23:31.001Z</time>
      </trkpt>
      <trkpt lat="50.02815" lon="4.11318">
        <ele>248.065</ele>
        <time>2019-09-19T14:24:01.001Z</time>
      </trkpt>
      <trkpt lat="50.02852" lon="4.11459">
        <ele>244.743</ele>
        <time>2019-09-19T14:24:31.001Z</time>
      </trkpt>
      <trkpt lat="50.02917" lon="4.11562">
        <ele>249.198</ele>
        <time>2019-09-19T14:25:01.001Z</time>
      </trkpt>
      <trkpt lat="50.02993" lon="4.11673">
        <ele>245.138</ele>
        <time>2019-09-19T14:25:31.001Z</time>
      </trkpt>
      <trkpt lat="50.03075" lon="4.11793">
        <ele>246.264</ele>
        <time>2019-09-19T14:26:01.001Z</time>
      </trkpt>
      <trkpt lat="50.03152" lon="4.119">
        <ele>246.725</ele>
        <time>2019-09-19T14:26:31.001Z</time>
      </trkpt>
      <trkpt lat="50.03239" lon="4.11981">
        <ele>247.234</ele>
        <time>2019-09-19T14:27:01.001Z</time>
      </trkpt>
      <trkpt lat="50.03346" lon="4.12035">
        <ele>247.378</ele>
        <time>2019-09-19T14:27:31.001Z</time>
      </trkpt>
      <trkpt lat="50.03416" lon="4.12164">
        <ele>243.325</ele>
        <time>2019-09-19T14:28:01.001Z</time>
      </trkpt>
      <trkpt lat="50.03511" lon="4.12255">
        <ele>246.066</ele>
        <time>2019-09-19T14:28:31.001Z</time>
      </trkpt>
      <trkpt lat="50.03621" lon="4.1232">
        <ele>246.989</ele>
        <time>2019-09-19T14:29:01.001Z</time>
      </trkpt>
      <trkpt lat="50.0358" lon="4.12515">
        <ele>249.816</ele>
        <time>2019-09-19T14:29:31.001Z</time>
      </trkpt>
      <trkpt lat="50.03509" lon="4.12732">
        <ele>246.715</ele>
        <time>2019-09-19T14:30:01.001Z</time>
      </trkpt>
      <trkpt lat="50.0342" lon="4.12913">
        <ele>245.202</ele>
        <time>2019-09-19T14:30:31.001Z</time>
      </trkpt>
      <trkpt lat="50.03325" lon="4.13033">
        <ele>245.645</ele>
        <time>2019-09-19T14:31:01.001Z</time>
      </trkpt>
      <trkpt lat="50.03217" lon="4.1308">
        <ele>248.613</ele>
        <time>2019-09-19T14:31:31.001Z</time>
      </trkpt>
      <trkpt lat="50.0312" lon="4.13201">
        <ele>248.125</ele>
        <time>2019-09-19T14:32:01.001Z</time>
      </trkpt>
      <trkpt lat="50.0308" lon="4.13449">
        <ele>247.151</ele>
        <time>2019-09-19T14:32:31.001Z</time>
      </trkpt>
      <trkpt lat="50.03013" lon="4.13669">
        <ele>244.213</ele>
        <time>2019-09-19T14:33:01.001Z</time>
      </trkpt>
      <trkpt lat="50.02966" lon="4.13845">
        <ele>243.616</ele>
        <time>2019-09-19T14:33:31.001Z</time>
      </trkpt>
      <trkpt lat="50.02935" lon="4.14002">
        <ele>249.952</ele>
        <time>2019-09-19T14:34:01.001Z</time>
      </trkpt>
      <trkpt lat="50.02852" lon="4.14023">
        <ele>255.052</ele>
        <time>2019-09-19T14:34:31.001Z</time>
      </trkpt>
      <trkpt lat="50.02748" lon="4.13974">
        <ele>260.934</ele>
        <time>2019-09-19T14:35:01.001Z</time>
      </trkpt>
      <trkpt lat="50.02791" lon="4.13994">
        <ele>263.132</ele>
        <time>2019-09-19T14:36:55.001Z</time>
      </trkpt>
      <trkpt lat="50.02859" lon="4.14057">
        <ele>258.408</ele>
        <time>2019-09-19T14:37:25.001Z</time>
      </trkpt>
      <trkpt lat="50.02797" lon="4.14097">
        <ele>261.934</ele>
        <time>2019-09-19T14:37:55.001Z</time>
      </trkpt>
      <trkpt lat="50.02744" lon="4.14199">
        <ele>256.664</ele>
        <time>2019-09-19T14:38:25.001Z</time>
      </trkpt>
      <trkpt lat="50.02707" lon="4.14377">
        <ele>247.998</ele>
        <time>2019-09-19T14:38:55.001Z</time>
      </trkpt>
      <trkpt lat="50.02686" lon="4.14536">
        <ele>252.939</ele>
        <time>2019-09-19T14:39:25.001Z</time>
      </trkpt>
      <trkpt lat="50.02661" lon="4.14715">
        <ele>251.459</ele>
        <time>2019-09-19T14:39:55.001Z</time>
      </trkpt>
      <trkpt lat="50.02596" lon="4.1484">
        <ele>251.104</ele>
        <time>2019-09-19T14:40:25.001Z</time>
      </trkpt>
      <trkpt lat="50.0256" lon="4.14934">
        <ele>255.545</ele>
        <time>2019-09-19T14:40:58.001Z</time>
      </trkpt>
      <trkpt lat="50.0257" lon="4.15093">
        <ele>256.082</ele>
        <time>2019-09-19T14:41:28.001Z</time>
      </trkpt>
      <trkpt lat="50.02577" lon="4.15281">
        <ele>264.559</ele>
        <time>2019-09-19T14:41:58.001Z</time>
      </trkpt>
      <trkpt lat="50.02586" lon="4.15455">
        <ele>280.596</ele>
        <time>2019-09-19T14:42:28.001Z</time>
      </trkpt>
      <trkpt lat="50.02595" lon="4.15653">
        <ele>271.454</ele>
        <time>2019-09-19T14:42:58.001Z</time>
      </trkpt>
      <trkpt lat="50.02604" lon="4.15839">
        <ele>272.968</ele>
        <time>2019-09-19T14:43:28.001Z</time>
      </trkpt>
      <trkpt lat="50.02608" lon="4.15943">
        <ele>269.661</ele>
        <time>2019-09-19T14:45:52.001Z</time>
      </trkpt>
      <trkpt lat="50.02699" lon="4.16021">
        <ele>267.075</ele>
        <time>2019-09-19T14:46:25.001Z</time>
      </trkpt>
      <trkpt lat="50.02848" lon="4.16162">
        <ele>256.703</ele>
        <time>2019-09-19T14:46:55.001Z</time>
      </trkpt>
      <trkpt lat="50.02952" lon="4.16326">
        <ele>253.02</ele>
        <time>2019-09-19T14:47:25.001Z</time>
      </trkpt>
      <trkpt lat="50.02991" lon="4.16512">
        <ele>260.422</ele>
        <time>2019-09-19T14:47:55.001Z</time>
      </trkpt>
      <trkpt lat="50.02974" lon="4.16605">
        <ele>257.326</ele>
        <time>2019-09-19T14:49:04.001Z</time>
      </trkpt>
      <trkpt lat="50.02968" lon="4.16599">
        <ele>260.478</ele>
        <time>2019-09-19T14:50:43.001Z</time>
      </trkpt>
      <trkpt lat="50.02966" lon="4.16598">
        <ele>259.683</ele>
        <time>2019-09-19T14:52:34.001Z</time>
      </trkpt>
      <trkpt lat="50.02952" lon="4.16598">
        <ele>251.139</ele>
        <time>2019-09-19T16:23:48.000Z</time>
      </trkpt>
      <trkpt lat="50.02951" lon="4.16598">
        <ele>251.707</ele>
        <time>2019-09-19T16:24:51.000Z</time>
      </trkpt>
      <trkpt lat="50.02951" lon="4.16598">
        <ele>251.707</ele>
        <time>2019-09-19T16:25:57.000Z</time>
      </trkpt>
      <trkpt lat="50.02987" lon="4.16562">
        <ele>252.792</ele>
        <time>2019-09-19T16:27:30.000Z</time>
      </trkpt>
      <trkpt lat="50.031" lon="4.16637">
        <ele>247.733</ele>
        <time>2019-09-19T16:28:00.000Z</time>
      </trkpt>
      <trkpt lat="50.03155" lon="4.16785">
        <ele>243.201</ele>
        <time>2019-09-19T16:28:30.000Z</time>
      </trkpt>
      <trkpt lat="50.03146" lon="4.168">
        <ele>245.003</ele>
        <time>2019-09-19T16:29:30.000Z</time>
      </trkpt>
      <trkpt lat="50.03147" lon="4.16798">
        <ele>239.734</ele>
        <time>2019-09-19T16:30:51.000Z</time>
      </trkpt>
      <trkpt lat="50.03123" lon="4.16837">
        <ele>239.451</ele>
        <time>2019-09-19T16:32:03.000Z</time>
      </trkpt>
      <trkpt lat="50.03191" lon="4.16797">
        <ele>243.634</ele>
        <time>2019-09-19T16:32:51.000Z</time>
      </trkpt>
      <trkpt lat="50.03153" lon="4.16814">
        <ele>243.613</ele>
        <time>2019-09-19T16:33:36.000Z</time>
      </trkpt>
      <trkpt lat="50.03161" lon="4.16809">
        <ele>246.412</ele>
        <time>2019-09-19T16:36:00.000Z</time>
      </trkpt>
      <trkpt lat="50.03149" lon="4.16795">
        <ele>246.66</ele>
        <time>2019-09-19T16:38:48.000Z</time>
      </trkpt>
      <trkpt lat="50.03143" lon="4.16794">
        <ele>248.091</ele>
        <time>2019-09-19T16:40:00.000Z</time>
      </trkpt>
      <trkpt lat="50.03143" lon="4.1679">
        <ele>248.821</ele>
        <time>2019-09-19T16:41:12.000Z</time>
      </trkpt>
      <trkpt lat="50.03155" lon="4.16778">
        <ele>245.641</ele>
        <time>2019-09-19T16:42:51.000Z</time>
      </trkpt>
      <trkpt lat="50.03109" lon="4.16661">
        <ele>251.58</ele>
        <time>2019-09-19T16:43:21.000Z</time>
      </trkpt>
      <trkpt lat="50.03027" lon="4.1657">
        <ele>255.152</ele>
        <time>2019-09-19T16:43:51.000Z</time>
      </trkpt>
      <trkpt lat="50.03007" lon="4.1658">
        <ele>256.075</ele>
        <time>2019-09-19T16:44:27.000Z</time>
      </trkpt>
      <trkpt lat="50.03006" lon="4.16582">
        <ele>256.063</ele>
        <time>2019-09-19T16:45:30.000Z</time>
      </trkpt>
      <trkpt lat="50.03023" lon="4.16553">
        <ele>251.26</ele>
        <time>2019-09-19T16:47:21.000Z</time>
      </trkpt>
      <trkpt lat="50.03" lon="4.16572">
        <ele>261.596</ele>
        <time>2019-09-19T16:48:03.000Z</time>
      </trkpt>
      <trkpt lat="50.02998" lon="4.16568">
        <ele>262.657</ele>
        <time>2019-09-19T16:49:54.000Z</time>
      </trkpt>
      <trkpt lat="50.03003" lon="4.16566">
        <ele>256.522</ele>
        <time>2019-09-19T17:13:00.000Z</time>
      </trkpt>
      <trkpt lat="50.03003" lon="4.16573">
        <ele>252.63</ele>
        <time>2019-09-19T17:14:21.001Z</time>
      </trkpt>
      <trkpt lat="50.03008" lon="4.16588">
        <ele>249.529</ele>
        <time>2019-09-19T17:15:45.001Z</time>
      </trkpt>
      <trkpt lat="50.02989" lon="4.16571">
        <ele>249.575</ele>
        <time>2019-09-19T17:16:42.001Z</time>
      </trkpt>
      <trkpt lat="50.02937" lon="4.16726">
        <ele>244.869</ele>
        <time>2019-09-19T17:17:15.001Z</time>
      </trkpt>
      <trkpt lat="50.02875" lon="4.16864">
        <ele>251.851</ele>
        <time>2019-09-19T17:17:45.001Z</time>
      </trkpt>
      <trkpt lat="50.02797" lon="4.16913">
        <ele>260.778</ele>
        <time>2019-09-19T17:18:15.001Z</time>
      </trkpt>
      <trkpt lat="50.02718" lon="4.16984">
        <ele>258.347</ele>
        <time>2019-09-19T17:18:45.001Z</time>
      </trkpt>
      <trkpt lat="50.02663" lon="4.17067">
        <ele>262.329</ele>
        <time>2019-09-19T17:19:18.001Z</time>
      </trkpt>
      <trkpt lat="50.02668" lon="4.17246">
        <ele>262.155</ele>
        <time>2019-09-19T17:19:51.002Z</time>
      </trkpt>
      <trkpt lat="50.0268" lon="4.17403">
        <ele>274.251</ele>
        <time>2019-09-19T17:20:21.001Z</time>
      </trkpt>
      <trkpt lat="50.02684" lon="4.1753">
        <ele>267.371</ele>
        <time>2019-09-19T17:20:51.001Z</time>
      </trkpt>
      <trkpt lat="50.02688" lon="4.17654">
        <ele>264.421</ele>
        <time>2019-09-19T17:21:24.001Z</time>
      </trkpt>
      <trkpt lat="50.02698" lon="4.17839">
        <ele>266.211</ele>
        <time>2019-09-19T17:21:54.001Z</time>
      </trkpt>
      <trkpt lat="50.02707" lon="4.18069">
        <ele>269.282</ele>
        <time>2019-09-19T17:22:24.001Z</time>
      </trkpt>
      <trkpt lat="50.0272" lon="4.18293">
        <ele>269.851</ele>
        <time>2019-09-19T17:22:54.001Z</time>
      </trkpt>
      <trkpt lat="50.0273" lon="4.18524">
        <ele>264.661</ele>
        <time>2019-09-19T17:23:24.001Z</time>
      </trkpt>
      <trkpt lat="50.02739" lon="4.18753">
        <ele>267.311</ele>
        <time>2019-09-19T17:23:54.001Z</time>
      </trkpt>
      <trkpt lat="50.02729" lon="4.1896">
        <ele>269.445</ele>
        <time>2019-09-19T17:24:24.001Z</time>
      </trkpt>
      <trkpt lat="50.02699" lon="4.19153">
        <ele>279.538</ele>
        <time>2019-09-19T17:24:54.001Z</time>
      </trkpt>
      <trkpt lat="50.02673" lon="4.1936">
        <ele>277.399</ele>
        <time>2019-09-19T17:25:24.001Z</time>
      </trkpt>
      <trkpt lat="50.02656" lon="4.19539">
        <ele>272.057</ele>
        <time>2019-09-19T17:25:54.001Z</time>
      </trkpt>
      <trkpt lat="50.02629" lon="4.19717">
        <ele>278.408</ele>
        <time>2019-09-19T17:26:24.001Z</time>
      </trkpt>
      <trkpt lat="50.02611" lon="4.19898">
        <ele>279.852</ele>
        <time>2019-09-19T17:26:54.001Z</time>
      </trkpt>
      <trkpt lat="50.02581" lon="4.20111">
        <ele>279.878</ele>
        <time>2019-09-19T17:27:24.001Z</time>
      </trkpt>
      <trkpt lat="50.02571" lon="4.20238">
        <ele>281.629</ele>
        <time>2019-09-19T17:27:54.001Z</time>
      </trkpt>
      <trkpt lat="50.02542" lon="4.20411">
        <ele>275.254</ele>
        <time>2019-09-19T17:28:24.001Z</time>
      </trkpt>
      <trkpt lat="50.02522" lon="4.20619">
        <ele>278.88</ele>
        <time>2019-09-19T17:28:54.001Z</time>
      </trkpt>
      <trkpt lat="50.02492" lon="4.20819">
        <ele>282.3</ele>
        <time>2019-09-19T17:29:24.001Z</time>
      </trkpt>
      <trkpt lat="50.02457" lon="4.21054">
        <ele>282.693</ele>
        <time>2019-09-19T17:29:54.001Z</time>
      </trkpt>
      <trkpt lat="50.02399" lon="4.21247">
        <ele>277.132</ele>
        <time>2019-09-19T17:32:12.001Z</time>
      </trkpt>
      <trkpt lat="50.02324" lon="4.21427">
        <ele>269.367</ele>
        <time>2019-09-19T17:32:42.001Z</time>
      </trkpt>
      <trkpt lat="50.02258" lon="4.21565">
        <ele>273.199</ele>
        <time>2019-09-19T17:33:12.001Z</time>
      </trkpt>
      <trkpt lat="50.02248" lon="4.21559">
        <ele>274.694</ele>
        <time>2019-09-19T17:33:54.001Z</time>
      </trkpt>
      <trkpt lat="50.02244" lon="4.21528">
        <ele>276.742</ele>
        <time>2019-09-19T17:35:30.001Z</time>
      </trkpt>
      <trkpt lat="50.02235" lon="4.21532">
        <ele>282.525</ele>
        <time>2019-09-19T17:39:27.001Z</time>
      </trkpt>
      <trkpt lat="50.02239" lon="4.21533">
        <ele>280.576</ele>
        <time>2019-09-19T17:40:06.001Z</time>
      </trkpt>
      <trkpt lat="50.02227" lon="4.21558">
        <ele>284.845</ele>
        <time>2019-09-19T17:41:24.001Z</time>
      </trkpt>
      <trkpt lat="50.02249" lon="4.21535">
        <ele>276.487</ele>
        <time>2019-09-19T17:48:00.000Z</time>
      </trkpt>
      <trkpt lat="50.0224" lon="4.21521">
        <ele>279.949</ele>
        <time>2019-09-19T17:52:48.001Z</time>
      </trkpt>
      <trkpt lat="50.02238" lon="4.21544">
        <ele>273.383</ele>
        <time>2019-09-19T17:54:21.001Z</time>
      </trkpt>
      <trkpt lat="50.0225" lon="4.21532">
        <ele>268.147</ele>
        <time>2019-09-19T17:55:33.001Z</time>
      </trkpt>
      <trkpt lat="50.02239" lon="4.21532">
        <ele>276.579</ele>
        <time>2019-09-19T17:57:27.001Z</time>
      </trkpt>
      <trkpt lat="50.02242" lon="4.21541">
        <ele>278.129</ele>
        <time>2019-09-19T17:58:30.001Z</time>
      </trkpt>
      <trkpt lat="50.02238" lon="4.21535">
        <ele>277.073</ele>
        <time>2019-09-19T17:59:12.001Z</time>
      </trkpt>
      <trkpt lat="50.02236" lon="4.21533">
        <ele>276.27</ele>
        <time>2019-09-19T18:00:30.001Z</time>
      </trkpt>
      <trkpt lat="50.02235" lon="4.21539">
        <ele>274.916</ele>
        <time>2019-09-19T18:02:21.001Z</time>
      </trkpt>
      <trkpt lat="50.0224" lon="4.21529">
        <ele>278.713</ele>
        <time>2019-09-19T18:03:45.001Z</time>
      </trkpt>
      <trkpt lat="50.02243" lon="4.21526">
        <ele>273.181</ele>
        <time>2019-09-19T18:05:57.001Z</time>
      </trkpt>
      <trkpt lat="50.02246" lon="4.21542">
        <ele>265.347</ele>
        <time>2019-09-19T18:07:33.001Z</time>
      </trkpt>
      <trkpt lat="50.02242" lon="4.21542">
        <ele>268.507</ele>
        <time>2019-09-19T18:08:09.001Z</time>
      </trkpt>
      <trkpt lat="50.02244" lon="4.21534">
        <ele>271.723</ele>
        <time>2019-09-19T18:09:24.001Z</time>
      </trkpt>
      <trkpt lat="50.02245" lon="4.21525">
        <ele>280.913</ele>
        <time>2019-09-19T18:11:03.001Z</time>
      </trkpt>
      <trkpt lat="50.02239" lon="4.21534">
        <ele>280.231</ele>
        <time>2019-09-19T18:13:48.001Z</time>
      </trkpt>
      <trkpt lat="50.02245" lon="4.2154">
        <ele>282.76</ele>
        <time>2019-09-19T18:16:21.001Z</time>
      </trkpt>
      <trkpt lat="50.02249" lon="4.21539">
        <ele>288.453</ele>
        <time>2019-09-19T18:22:00.000Z</time>
      </trkpt>
      <trkpt lat="50.02246" lon="4.21527">
        <ele>287.017</ele>
        <time>2019-09-19T18:23:03.001Z</time>
      </trkpt>
      <trkpt lat="50.02238" lon="4.21539">
        <ele>288.259</ele>
        <time>2019-09-19T18:25:03.001Z</time>
      </trkpt>
      <trkpt lat="50.02241" lon="4.21544">
        <ele>284.602</ele>
        <time>2019-09-19T18:26:45.001Z</time>
      </trkpt>
      <trkpt lat="50.02249" lon="4.21536">
        <ele>280.117</ele>
        <time>2019-09-19T18:27:57.001Z</time>
      </trkpt>
      <trkpt lat="50.02247" lon="4.21519">
        <ele>278.518</ele>
        <time>2019-09-19T18:29:03.001Z</time>
      </trkpt>
      <trkpt lat="50.02246" lon="4.21529">
        <ele>278.26</ele>
        <time>2019-09-19T18:31:33.001Z</time>
      </trkpt>
      <trkpt lat="50.02244" lon="4.21534">
        <ele>280.008</ele>
        <time>2019-09-19T18:32:18.001Z</time>
      </trkpt>
      <trkpt lat="50.0225" lon="4.21531">
        <ele>277.607</ele>
        <time>2019-09-19T18:33:27.001Z</time>
      </trkpt>
      <trkpt lat="50.02228" lon="4.21525">
        <ele>282.37</ele>
        <time>2019-09-19T18:37:12.001Z</time>
      </trkpt>
    </trkseg>
  </trk>
</gpx>